<?xml version="1.0" encoding="UTF-8" standalone="no" ?>
<gpx xmlns="http://www.topografix.com/GPX/1/1" xmlns:xsi="http://www.w3.org/2001/XMLSchema-instance" xsi:schemaLocation="http://www.topografix.com/GPX/1/1 http://www.topografix.com/GPX/1/1/gpx.xsd" version="1.1" creator="VisuGPX - https://www.visugpx.com">
  <metadata>
    <name>Vacances 2021</name>
  </metadata>
  <trk>
    <name><![CDATA[Journal actif: 2021-07-27 13:58]]></name>
    <trkseg>
      <trkpt lat="49.40097" lon="3.45329">
        <ele>161.16</ele>
        <time>2021-07-27T15:58:08Z</time>
      </trkpt>
      <trkpt lat="49.401" lon="3.45327">
        <ele>161.64</ele>
        <time>2021-07-27T15:58:26Z</time>
      </trkpt>
      <trkpt lat="49.401" lon="3.45327">
        <ele>161.64</ele>
        <time>2021-07-27T15:58:27Z</time>
      </trkpt>
      <trkpt lat="49.40108" lon="3.45325">
        <ele>161.64</ele>
        <time>2021-07-27T15:58:32Z</time>
      </trkpt>
      <trkpt lat="49.40129" lon="3.4534">
        <ele>159.24</ele>
        <time>2021-07-27T15:58:45Z</time>
      </trkpt>
      <trkpt lat="49.40129" lon="3.4534">
        <ele>158.75</ele>
        <time>2021-07-27T15:58:46Z</time>
      </trkpt>
      <trkpt lat="49.40126" lon="3.45329">
        <ele>159.24</ele>
        <time>2021-07-27T15:58:47Z</time>
      </trkpt>
      <trkpt lat="49.40124" lon="3.45322">
        <ele>159.72</ele>
        <time>2021-07-27T15:58:48Z</time>
      </trkpt>
      <trkpt lat="49.40124" lon="3.45322">
        <ele>159.72</ele>
        <time>2021-07-27T15:58:49Z</time>
      </trkpt>
      <trkpt lat="49.40122" lon="3.45318">
        <ele>159.24</ele>
        <time>2021-07-27T15:58:50Z</time>
      </trkpt>
      <trkpt lat="49.40121" lon="3.45313">
        <ele>159.24</ele>
        <time>2021-07-27T15:58:51Z</time>
      </trkpt>
      <trkpt lat="49.40119" lon="3.45309">
        <ele>158.75</ele>
        <time>2021-07-27T15:58:52Z</time>
      </trkpt>
      <trkpt lat="49.40118" lon="3.45305">
        <ele>158.75</ele>
        <time>2021-07-27T15:58:53Z</time>
      </trkpt>
      <trkpt lat="49.40059" lon="3.45268">
        <ele>159.24</ele>
        <time>2021-07-27T15:59:02Z</time>
      </trkpt>
      <trkpt lat="49.40051" lon="3.45266">
        <ele>159.24</ele>
        <time>2021-07-27T15:59:03Z</time>
      </trkpt>
      <trkpt lat="49.40042" lon="3.45267">
        <ele>159.24</ele>
        <time>2021-07-27T15:59:04Z</time>
      </trkpt>
      <trkpt lat="49.40035" lon="3.45272">
        <ele>158.75</ele>
        <time>2021-07-27T15:59:05Z</time>
      </trkpt>
      <trkpt lat="49.40028" lon="3.4528">
        <ele>158.27</ele>
        <time>2021-07-27T15:59:06Z</time>
      </trkpt>
      <trkpt lat="49.40023" lon="3.4529">
        <ele>158.27</ele>
        <time>2021-07-27T15:59:07Z</time>
      </trkpt>
      <trkpt lat="49.40018" lon="3.453">
        <ele>158.27</ele>
        <time>2021-07-27T15:59:08Z</time>
      </trkpt>
      <trkpt lat="49.40003" lon="3.45331">
        <ele>157.79</ele>
        <time>2021-07-27T15:59:10Z</time>
      </trkpt>
      <trkpt lat="49.40003" lon="3.45331">
        <ele>157.31</ele>
        <time>2021-07-27T15:59:11Z</time>
      </trkpt>
      <trkpt lat="49.39998" lon="3.45341">
        <ele>156.35</ele>
        <time>2021-07-27T15:59:12Z</time>
      </trkpt>
      <trkpt lat="49.39992" lon="3.4535">
        <ele>156.35</ele>
        <time>2021-07-27T15:59:13Z</time>
      </trkpt>
      <trkpt lat="49.39984" lon="3.45357">
        <ele>156.35</ele>
        <time>2021-07-27T15:59:14Z</time>
      </trkpt>
      <trkpt lat="49.39976" lon="3.45362">
        <ele>155.87</ele>
        <time>2021-07-27T15:59:15Z</time>
      </trkpt>
      <trkpt lat="49.39968" lon="3.45364">
        <ele>156.35</ele>
        <time>2021-07-27T15:59:16Z</time>
      </trkpt>
      <trkpt lat="49.39828" lon="3.45403">
        <ele>152.03</ele>
        <time>2021-07-27T15:59:28Z</time>
      </trkpt>
      <trkpt lat="49.39781" lon="3.45412">
        <ele>148.18</ele>
        <time>2021-07-27T15:59:33Z</time>
      </trkpt>
      <trkpt lat="49.39774" lon="3.45411">
        <ele>147.7</ele>
        <time>2021-07-27T15:59:34Z</time>
      </trkpt>
      <trkpt lat="49.39769" lon="3.45408">
        <ele>146.74</ele>
        <time>2021-07-27T15:59:35Z</time>
      </trkpt>
      <trkpt lat="49.39763" lon="3.45402">
        <ele>145.78</ele>
        <time>2021-07-27T15:59:36Z</time>
      </trkpt>
      <trkpt lat="49.39757" lon="3.45395">
        <ele>145.78</ele>
        <time>2021-07-27T15:59:37Z</time>
      </trkpt>
      <trkpt lat="49.39754" lon="3.45391">
        <ele>145.3</ele>
        <time>2021-07-27T15:59:38Z</time>
      </trkpt>
      <trkpt lat="49.39752" lon="3.45381">
        <ele>144.82</ele>
        <time>2021-07-27T15:59:39Z</time>
      </trkpt>
      <trkpt lat="49.3975" lon="3.4537">
        <ele>144.34</ele>
        <time>2021-07-27T15:59:40Z</time>
      </trkpt>
      <trkpt lat="49.39748" lon="3.45358">
        <ele>143.85</ele>
        <time>2021-07-27T15:59:41Z</time>
      </trkpt>
      <trkpt lat="49.39734" lon="3.45173">
        <ele>139.05</ele>
        <time>2021-07-27T15:59:53Z</time>
      </trkpt>
      <trkpt lat="49.39731" lon="3.45157">
        <ele>140.97</ele>
        <time>2021-07-27T15:59:54Z</time>
      </trkpt>
      <trkpt lat="49.39682" lon="3.44981">
        <ele>143.37</ele>
        <time>2021-07-27T16:00:05Z</time>
      </trkpt>
      <trkpt lat="49.39679" lon="3.44965">
        <ele>143.37</ele>
        <time>2021-07-27T16:00:06Z</time>
      </trkpt>
      <trkpt lat="49.39673" lon="3.44714">
        <ele>146.26</ele>
        <time>2021-07-27T16:00:19Z</time>
      </trkpt>
      <trkpt lat="49.3971" lon="3.44557">
        <ele>145.78</ele>
        <time>2021-07-27T16:00:28Z</time>
      </trkpt>
      <trkpt lat="49.39745" lon="3.44357">
        <ele>137.61</ele>
        <time>2021-07-27T16:00:38Z</time>
      </trkpt>
      <trkpt lat="49.39749" lon="3.4433">
        <ele>136.64</ele>
        <time>2021-07-27T16:00:41Z</time>
      </trkpt>
      <trkpt lat="49.39754" lon="3.44319">
        <ele>136.16</ele>
        <time>2021-07-27T16:00:42Z</time>
      </trkpt>
      <trkpt lat="49.39758" lon="3.44307">
        <ele>135.68</ele>
        <time>2021-07-27T16:00:43Z</time>
      </trkpt>
      <trkpt lat="49.39762" lon="3.44297">
        <ele>135.2</ele>
        <time>2021-07-27T16:00:44Z</time>
      </trkpt>
      <trkpt lat="49.39769" lon="3.44291">
        <ele>134.24</ele>
        <time>2021-07-27T16:00:45Z</time>
      </trkpt>
      <trkpt lat="49.39776" lon="3.44286">
        <ele>133.28</ele>
        <time>2021-07-27T16:00:46Z</time>
      </trkpt>
      <trkpt lat="49.39784" lon="3.44285">
        <ele>132.32</ele>
        <time>2021-07-27T16:00:47Z</time>
      </trkpt>
      <trkpt lat="49.39792" lon="3.44283">
        <ele>131.84</ele>
        <time>2021-07-27T16:00:48Z</time>
      </trkpt>
      <trkpt lat="49.39908" lon="3.44273">
        <ele>122.22</ele>
        <time>2021-07-27T16:01:03Z</time>
      </trkpt>
      <trkpt lat="49.39956" lon="3.4427">
        <ele>115.98</ele>
        <time>2021-07-27T16:01:11Z</time>
      </trkpt>
      <trkpt lat="49.40048" lon="3.44246">
        <ele>104.92</ele>
        <time>2021-07-27T16:01:22Z</time>
      </trkpt>
      <trkpt lat="49.40097" lon="3.44243">
        <ele>98.19</ele>
        <time>2021-07-27T16:01:29Z</time>
      </trkpt>
      <trkpt lat="49.40118" lon="3.44251">
        <ele>95.79</ele>
        <time>2021-07-27T16:01:33Z</time>
      </trkpt>
      <trkpt lat="49.40124" lon="3.44253">
        <ele>94.83</ele>
        <time>2021-07-27T16:01:34Z</time>
      </trkpt>
      <trkpt lat="49.40131" lon="3.44256">
        <ele>94.35</ele>
        <time>2021-07-27T16:01:35Z</time>
      </trkpt>
      <trkpt lat="49.40187" lon="3.44295">
        <ele>89.06</ele>
        <time>2021-07-27T16:01:43Z</time>
      </trkpt>
      <trkpt lat="49.40193" lon="3.44299">
        <ele>89.06</ele>
        <time>2021-07-27T16:01:44Z</time>
      </trkpt>
      <trkpt lat="49.40206" lon="3.44305">
        <ele>89.54</ele>
        <time>2021-07-27T16:01:45Z</time>
      </trkpt>
      <trkpt lat="49.40206" lon="3.44305">
        <ele>90.02</ele>
        <time>2021-07-27T16:01:46Z</time>
      </trkpt>
      <trkpt lat="49.40214" lon="3.44304">
        <ele>90.5</ele>
        <time>2021-07-27T16:01:47Z</time>
      </trkpt>
      <trkpt lat="49.40223" lon="3.44302">
        <ele>90.98</ele>
        <time>2021-07-27T16:01:48Z</time>
      </trkpt>
      <trkpt lat="49.40227" lon="3.44288">
        <ele>92.9</ele>
        <time>2021-07-27T16:01:49Z</time>
      </trkpt>
      <trkpt lat="49.40228" lon="3.44276">
        <ele>94.83</ele>
        <time>2021-07-27T16:01:50Z</time>
      </trkpt>
      <trkpt lat="49.4023" lon="3.44264">
        <ele>95.31</ele>
        <time>2021-07-27T16:01:51Z</time>
      </trkpt>
      <trkpt lat="49.40228" lon="3.44255">
        <ele>96.75</ele>
        <time>2021-07-27T16:01:52Z</time>
      </trkpt>
      <trkpt lat="49.40226" lon="3.4425">
        <ele>97.71</ele>
        <time>2021-07-27T16:01:53Z</time>
      </trkpt>
      <trkpt lat="49.4022" lon="3.44244">
        <ele>98.19</ele>
        <time>2021-07-27T16:01:54Z</time>
      </trkpt>
      <trkpt lat="49.40215" lon="3.4424">
        <ele>98.19</ele>
        <time>2021-07-27T16:01:55Z</time>
      </trkpt>
      <trkpt lat="49.40209" lon="3.44235">
        <ele>98.19</ele>
        <time>2021-07-27T16:01:56Z</time>
      </trkpt>
      <trkpt lat="49.40191" lon="3.44222">
        <ele>98.19</ele>
        <time>2021-07-27T16:02:01Z</time>
      </trkpt>
      <trkpt lat="49.40134" lon="3.44183">
        <ele>93.39</ele>
        <time>2021-07-27T16:02:11Z</time>
      </trkpt>
      <trkpt lat="49.40099" lon="3.44159">
        <ele>90.5</ele>
        <time>2021-07-27T16:02:16Z</time>
      </trkpt>
      <trkpt lat="49.40063" lon="3.44142">
        <ele>87.14</ele>
        <time>2021-07-27T16:02:24Z</time>
      </trkpt>
      <trkpt lat="49.39969" lon="3.44101">
        <ele>80.89</ele>
        <time>2021-07-27T16:02:34Z</time>
      </trkpt>
      <trkpt lat="49.39935" lon="3.44077">
        <ele>83.29</ele>
        <time>2021-07-27T16:02:41Z</time>
      </trkpt>
      <trkpt lat="49.39928" lon="3.44072">
        <ele>82.33</ele>
        <time>2021-07-27T16:02:42Z</time>
      </trkpt>
      <trkpt lat="49.39923" lon="3.44064">
        <ele>82.33</ele>
        <time>2021-07-27T16:02:43Z</time>
      </trkpt>
      <trkpt lat="49.39918" lon="3.44056">
        <ele>82.33</ele>
        <time>2021-07-27T16:02:44Z</time>
      </trkpt>
      <trkpt lat="49.39915" lon="3.44043">
        <ele>82.33</ele>
        <time>2021-07-27T16:02:45Z</time>
      </trkpt>
      <trkpt lat="49.39916" lon="3.44031">
        <ele>82.33</ele>
        <time>2021-07-27T16:02:46Z</time>
      </trkpt>
      <trkpt lat="49.39919" lon="3.44019">
        <ele>82.33</ele>
        <time>2021-07-27T16:02:47Z</time>
      </trkpt>
      <trkpt lat="49.39925" lon="3.44009">
        <ele>82.33</ele>
        <time>2021-07-27T16:02:48Z</time>
      </trkpt>
      <trkpt lat="49.39931" lon="3.44004">
        <ele>81.85</ele>
        <time>2021-07-27T16:02:49Z</time>
      </trkpt>
      <trkpt lat="49.39939" lon="3.43999">
        <ele>81.37</ele>
        <time>2021-07-27T16:02:50Z</time>
      </trkpt>
      <trkpt lat="49.39947" lon="3.44">
        <ele>81.37</ele>
        <time>2021-07-27T16:02:51Z</time>
      </trkpt>
      <trkpt lat="49.40106" lon="3.44029">
        <ele>79.93</ele>
        <time>2021-07-27T16:03:05Z</time>
      </trkpt>
      <trkpt lat="49.40135" lon="3.44034">
        <ele>79.93</ele>
        <time>2021-07-27T16:03:08Z</time>
      </trkpt>
      <trkpt lat="49.40143" lon="3.44034">
        <ele>79.93</ele>
        <time>2021-07-27T16:03:09Z</time>
      </trkpt>
      <trkpt lat="49.40151" lon="3.44032">
        <ele>79.93</ele>
        <time>2021-07-27T16:03:10Z</time>
      </trkpt>
      <trkpt lat="49.40158" lon="3.44029">
        <ele>79.45</ele>
        <time>2021-07-27T16:03:11Z</time>
      </trkpt>
      <trkpt lat="49.40163" lon="3.44021">
        <ele>79.45</ele>
        <time>2021-07-27T16:03:12Z</time>
      </trkpt>
      <trkpt lat="49.40163" lon="3.44011">
        <ele>79.45</ele>
        <time>2021-07-27T16:03:13Z</time>
      </trkpt>
      <trkpt lat="49.40162" lon="3.4399">
        <ele>79.45</ele>
        <time>2021-07-27T16:03:14Z</time>
      </trkpt>
      <trkpt lat="49.40157" lon="3.43982">
        <ele>78.97</ele>
        <time>2021-07-27T16:03:15Z</time>
      </trkpt>
      <trkpt lat="49.4015" lon="3.43976">
        <ele>78.48</ele>
        <time>2021-07-27T16:03:16Z</time>
      </trkpt>
      <trkpt lat="49.40143" lon="3.4397">
        <ele>78.48</ele>
        <time>2021-07-27T16:03:17Z</time>
      </trkpt>
      <trkpt lat="49.40136" lon="3.43963">
        <ele>77.52</ele>
        <time>2021-07-27T16:03:18Z</time>
      </trkpt>
      <trkpt lat="49.40112" lon="3.43938">
        <ele>76.08</ele>
        <time>2021-07-27T16:03:25Z</time>
      </trkpt>
      <trkpt lat="49.40099" lon="3.43924">
        <ele>75.12</ele>
        <time>2021-07-27T16:03:31Z</time>
      </trkpt>
      <trkpt lat="49.40053" lon="3.43893">
        <ele>71.27</ele>
        <time>2021-07-27T16:03:39Z</time>
      </trkpt>
      <trkpt lat="49.39923" lon="3.43776">
        <ele>62.14</ele>
        <time>2021-07-27T16:03:56Z</time>
      </trkpt>
      <trkpt lat="49.39847" lon="3.43693">
        <ele>60.22</ele>
        <time>2021-07-27T16:04:08Z</time>
      </trkpt>
      <trkpt lat="49.39779" lon="3.43648">
        <ele>64.07</ele>
        <time>2021-07-27T16:04:18Z</time>
      </trkpt>
      <trkpt lat="49.39669" lon="3.43573">
        <ele>66.47</ele>
        <time>2021-07-27T16:04:32Z</time>
      </trkpt>
      <trkpt lat="49.3961" lon="3.43519">
        <ele>66.95</ele>
        <time>2021-07-27T16:04:41Z</time>
      </trkpt>
      <trkpt lat="49.39602" lon="3.43513">
        <ele>66.95</ele>
        <time>2021-07-27T16:04:42Z</time>
      </trkpt>
      <trkpt lat="49.39594" lon="3.43506">
        <ele>67.91</ele>
        <time>2021-07-27T16:04:43Z</time>
      </trkpt>
      <trkpt lat="49.39524" lon="3.43457">
        <ele>64.07</ele>
        <time>2021-07-27T16:04:52Z</time>
      </trkpt>
      <trkpt lat="49.39518" lon="3.43452">
        <ele>63.58</ele>
        <time>2021-07-27T16:04:53Z</time>
      </trkpt>
      <trkpt lat="49.39514" lon="3.43444">
        <ele>62.62</ele>
        <time>2021-07-27T16:04:54Z</time>
      </trkpt>
      <trkpt lat="49.39499" lon="3.43417">
        <ele>60.7</ele>
        <time>2021-07-27T16:04:57Z</time>
      </trkpt>
      <trkpt lat="49.39493" lon="3.4341">
        <ele>60.22</ele>
        <time>2021-07-27T16:04:58Z</time>
      </trkpt>
      <trkpt lat="49.39487" lon="3.43406">
        <ele>60.22</ele>
        <time>2021-07-27T16:04:59Z</time>
      </trkpt>
      <trkpt lat="49.39481" lon="3.43404">
        <ele>60.22</ele>
        <time>2021-07-27T16:05:00Z</time>
      </trkpt>
      <trkpt lat="49.39474" lon="3.43401">
        <ele>60.22</ele>
        <time>2021-07-27T16:05:01Z</time>
      </trkpt>
      <trkpt lat="49.39413" lon="3.43368">
        <ele>58.78</ele>
        <time>2021-07-27T16:05:09Z</time>
      </trkpt>
      <trkpt lat="49.39405" lon="3.43364">
        <ele>58.3</ele>
        <time>2021-07-27T16:05:10Z</time>
      </trkpt>
      <trkpt lat="49.39399" lon="3.43357">
        <ele>57.82</ele>
        <time>2021-07-27T16:05:11Z</time>
      </trkpt>
      <trkpt lat="49.39392" lon="3.43347">
        <ele>57.34</ele>
        <time>2021-07-27T16:05:12Z</time>
      </trkpt>
      <trkpt lat="49.39386" lon="3.43338">
        <ele>56.86</ele>
        <time>2021-07-27T16:05:13Z</time>
      </trkpt>
      <trkpt lat="49.3938" lon="3.43329">
        <ele>55.89</ele>
        <time>2021-07-27T16:05:14Z</time>
      </trkpt>
      <trkpt lat="49.39379" lon="3.4332">
        <ele>55.41</ele>
        <time>2021-07-27T16:05:15Z</time>
      </trkpt>
      <trkpt lat="49.39376" lon="3.43307">
        <ele>54.93</ele>
        <time>2021-07-27T16:05:16Z</time>
      </trkpt>
      <trkpt lat="49.39374" lon="3.43294">
        <ele>55.89</ele>
        <time>2021-07-27T16:05:17Z</time>
      </trkpt>
      <trkpt lat="49.39362" lon="3.43129">
        <ele>54.93</ele>
        <time>2021-07-27T16:05:26Z</time>
      </trkpt>
      <trkpt lat="49.39352" lon="3.42958">
        <ele>58.78</ele>
        <time>2021-07-27T16:05:35Z</time>
      </trkpt>
      <trkpt lat="49.3935" lon="3.42943">
        <ele>59.26</ele>
        <time>2021-07-27T16:05:36Z</time>
      </trkpt>
      <trkpt lat="49.39347" lon="3.42931">
        <ele>59.26</ele>
        <time>2021-07-27T16:05:37Z</time>
      </trkpt>
      <trkpt lat="49.39342" lon="3.42917">
        <ele>58.78</ele>
        <time>2021-07-27T16:05:38Z</time>
      </trkpt>
      <trkpt lat="49.39337" lon="3.42904">
        <ele>59.26</ele>
        <time>2021-07-27T16:05:39Z</time>
      </trkpt>
      <trkpt lat="49.39246" lon="3.42734">
        <ele>61.18</ele>
        <time>2021-07-27T16:05:50Z</time>
      </trkpt>
      <trkpt lat="49.39238" lon="3.42719">
        <ele>62.14</ele>
        <time>2021-07-27T16:05:51Z</time>
      </trkpt>
      <trkpt lat="49.39233" lon="3.42702">
        <ele>63.1</ele>
        <time>2021-07-27T16:05:52Z</time>
      </trkpt>
      <trkpt lat="49.39229" lon="3.42685">
        <ele>63.1</ele>
        <time>2021-07-27T16:05:53Z</time>
      </trkpt>
      <trkpt lat="49.3922" lon="3.42654">
        <ele>64.07</ele>
        <time>2021-07-27T16:05:55Z</time>
      </trkpt>
      <trkpt lat="49.39215" lon="3.42638">
        <ele>65.03</ele>
        <time>2021-07-27T16:05:56Z</time>
      </trkpt>
      <trkpt lat="49.3921" lon="3.42626">
        <ele>65.03</ele>
        <time>2021-07-27T16:05:57Z</time>
      </trkpt>
      <trkpt lat="49.39202" lon="3.42612">
        <ele>65.03</ele>
        <time>2021-07-27T16:05:58Z</time>
      </trkpt>
      <trkpt lat="49.39183" lon="3.42594">
        <ele>65.51</ele>
        <time>2021-07-27T16:05:59Z</time>
      </trkpt>
      <trkpt lat="49.39172" lon="3.42586">
        <ele>65.51</ele>
        <time>2021-07-27T16:06:00Z</time>
      </trkpt>
      <trkpt lat="49.3906" lon="3.42477">
        <ele>65.03</ele>
        <time>2021-07-27T16:06:11Z</time>
      </trkpt>
      <trkpt lat="49.39005" lon="3.42384">
        <ele>62.62</ele>
        <time>2021-07-27T16:06:17Z</time>
      </trkpt>
      <trkpt lat="49.38999" lon="3.42365">
        <ele>62.14</ele>
        <time>2021-07-27T16:06:18Z</time>
      </trkpt>
      <trkpt lat="49.38963" lon="3.4221">
        <ele>62.62</ele>
        <time>2021-07-27T16:06:27Z</time>
      </trkpt>
      <trkpt lat="49.38947" lon="3.42141">
        <ele>61.18</ele>
        <time>2021-07-27T16:06:34Z</time>
      </trkpt>
      <trkpt lat="49.38946" lon="3.42135">
        <ele>61.66</ele>
        <time>2021-07-27T16:06:37Z</time>
      </trkpt>
      <trkpt lat="49.38945" lon="3.42133">
        <ele>62.14</ele>
        <time>2021-07-27T16:06:38Z</time>
      </trkpt>
      <trkpt lat="49.38942" lon="3.42135">
        <ele>61.66</ele>
        <time>2021-07-27T16:06:39Z</time>
      </trkpt>
      <trkpt lat="49.38938" lon="3.42142">
        <ele>61.66</ele>
        <time>2021-07-27T16:06:40Z</time>
      </trkpt>
      <trkpt lat="49.38938" lon="3.42142">
        <ele>61.18</ele>
        <time>2021-07-27T16:06:41Z</time>
      </trkpt>
      <trkpt lat="49.38929" lon="3.42152">
        <ele>60.22</ele>
        <time>2021-07-27T16:06:43Z</time>
      </trkpt>
      <trkpt lat="49.38923" lon="3.42157">
        <ele>59.74</ele>
        <time>2021-07-27T16:06:44Z</time>
      </trkpt>
      <trkpt lat="49.38845" lon="3.42195">
        <ele>54.45</ele>
        <time>2021-07-27T16:06:52Z</time>
      </trkpt>
      <trkpt lat="49.38724" lon="3.42178">
        <ele>50.61</ele>
        <time>2021-07-27T16:07:01Z</time>
      </trkpt>
      <trkpt lat="49.38591" lon="3.42173">
        <ele>53.01</ele>
        <time>2021-07-27T16:07:11Z</time>
      </trkpt>
      <trkpt lat="49.38562" lon="3.42184">
        <ele>52.53</ele>
        <time>2021-07-27T16:07:13Z</time>
      </trkpt>
      <trkpt lat="49.38535" lon="3.42204">
        <ele>51.57</ele>
        <time>2021-07-27T16:07:14Z</time>
      </trkpt>
      <trkpt lat="49.3839" lon="3.4234">
        <ele>43.4</ele>
        <time>2021-07-27T16:07:26Z</time>
      </trkpt>
      <trkpt lat="49.38326" lon="3.42377">
        <ele>40.99</ele>
        <time>2021-07-27T16:07:32Z</time>
      </trkpt>
      <trkpt lat="49.38319" lon="3.42378">
        <ele>40.99</ele>
        <time>2021-07-27T16:07:33Z</time>
      </trkpt>
      <trkpt lat="49.38312" lon="3.42378">
        <ele>40.99</ele>
        <time>2021-07-27T16:07:34Z</time>
      </trkpt>
      <trkpt lat="49.38305" lon="3.42379">
        <ele>40.99</ele>
        <time>2021-07-27T16:07:35Z</time>
      </trkpt>
      <trkpt lat="49.38299" lon="3.42377">
        <ele>40.99</ele>
        <time>2021-07-27T16:07:36Z</time>
      </trkpt>
      <trkpt lat="49.38297" lon="3.42368">
        <ele>40.51</ele>
        <time>2021-07-27T16:07:37Z</time>
      </trkpt>
      <trkpt lat="49.38294" lon="3.42356">
        <ele>40.51</ele>
        <time>2021-07-27T16:07:38Z</time>
      </trkpt>
      <trkpt lat="49.3829" lon="3.42342">
        <ele>40.03</ele>
        <time>2021-07-27T16:07:39Z</time>
      </trkpt>
      <trkpt lat="49.38262" lon="3.42164">
        <ele>40.99</ele>
        <time>2021-07-27T16:07:48Z</time>
      </trkpt>
      <trkpt lat="49.38242" lon="3.41868">
        <ele>40.03</ele>
        <time>2021-07-27T16:07:59Z</time>
      </trkpt>
      <trkpt lat="49.38254" lon="3.41508">
        <ele>39.07</ele>
        <time>2021-07-27T16:08:11Z</time>
      </trkpt>
      <trkpt lat="49.38312" lon="3.4114">
        <ele>42.92</ele>
        <time>2021-07-27T16:08:24Z</time>
      </trkpt>
      <trkpt lat="49.38411" lon="3.40718">
        <ele>42.44</ele>
        <time>2021-07-27T16:08:39Z</time>
      </trkpt>
      <trkpt lat="49.38521" lon="3.40267">
        <ele>44.36</ele>
        <time>2021-07-27T16:08:54Z</time>
      </trkpt>
      <trkpt lat="49.38622" lon="3.39858">
        <ele>47.24</ele>
        <time>2021-07-27T16:09:07Z</time>
      </trkpt>
      <trkpt lat="49.38706" lon="3.39524">
        <ele>46.28</ele>
        <time>2021-07-27T16:09:19Z</time>
      </trkpt>
      <trkpt lat="49.38751" lon="3.39357">
        <ele>46.76</ele>
        <time>2021-07-27T16:09:27Z</time>
      </trkpt>
      <trkpt lat="49.38759" lon="3.39328">
        <ele>45.32</ele>
        <time>2021-07-27T16:09:32Z</time>
      </trkpt>
      <trkpt lat="49.38768" lon="3.39323">
        <ele>44.36</ele>
        <time>2021-07-27T16:09:37Z</time>
      </trkpt>
      <trkpt lat="49.38774" lon="3.39319">
        <ele>43.88</ele>
        <time>2021-07-27T16:09:38Z</time>
      </trkpt>
      <trkpt lat="49.38777" lon="3.39313">
        <ele>43.88</ele>
        <time>2021-07-27T16:09:39Z</time>
      </trkpt>
      <trkpt lat="49.3878" lon="3.39305">
        <ele>44.36</ele>
        <time>2021-07-27T16:09:40Z</time>
      </trkpt>
      <trkpt lat="49.3878" lon="3.39295">
        <ele>44.36</ele>
        <time>2021-07-27T16:09:41Z</time>
      </trkpt>
      <trkpt lat="49.38778" lon="3.39287">
        <ele>44.36</ele>
        <time>2021-07-27T16:09:42Z</time>
      </trkpt>
      <trkpt lat="49.38777" lon="3.39271">
        <ele>44.36</ele>
        <time>2021-07-27T16:09:43Z</time>
      </trkpt>
      <trkpt lat="49.3878" lon="3.39259">
        <ele>44.36</ele>
        <time>2021-07-27T16:09:44Z</time>
      </trkpt>
      <trkpt lat="49.38785" lon="3.39247">
        <ele>44.84</ele>
        <time>2021-07-27T16:09:45Z</time>
      </trkpt>
      <trkpt lat="49.3879" lon="3.39231">
        <ele>44.36</ele>
        <time>2021-07-27T16:09:46Z</time>
      </trkpt>
      <trkpt lat="49.38854" lon="3.39057">
        <ele>46.28</ele>
        <time>2021-07-27T16:09:55Z</time>
      </trkpt>
      <trkpt lat="49.38923" lon="3.38801">
        <ele>47.24</ele>
        <time>2021-07-27T16:10:05Z</time>
      </trkpt>
      <trkpt lat="49.38975" lon="3.38407">
        <ele>42.92</ele>
        <time>2021-07-27T16:10:18Z</time>
      </trkpt>
      <trkpt lat="49.39032" lon="3.37922">
        <ele>44.84</ele>
        <time>2021-07-27T16:10:34Z</time>
      </trkpt>
      <trkpt lat="49.39085" lon="3.37764">
        <ele>41.95</ele>
        <time>2021-07-27T16:10:40Z</time>
      </trkpt>
      <trkpt lat="49.39176" lon="3.37656">
        <ele>39.07</ele>
        <time>2021-07-27T16:10:46Z</time>
      </trkpt>
      <trkpt lat="49.39304" lon="3.37549">
        <ele>39.07</ele>
        <time>2021-07-27T16:10:54Z</time>
      </trkpt>
      <trkpt lat="49.39317" lon="3.37532">
        <ele>39.07</ele>
        <time>2021-07-27T16:10:55Z</time>
      </trkpt>
      <trkpt lat="49.39326" lon="3.37512">
        <ele>39.07</ele>
        <time>2021-07-27T16:10:56Z</time>
      </trkpt>
      <trkpt lat="49.39336" lon="3.37493">
        <ele>39.55</ele>
        <time>2021-07-27T16:10:57Z</time>
      </trkpt>
      <trkpt lat="49.39368" lon="3.37423">
        <ele>39.07</ele>
        <time>2021-07-27T16:11:02Z</time>
      </trkpt>
      <trkpt lat="49.39372" lon="3.37413">
        <ele>39.55</ele>
        <time>2021-07-27T16:11:03Z</time>
      </trkpt>
      <trkpt lat="49.39375" lon="3.37405">
        <ele>39.55</ele>
        <time>2021-07-27T16:11:04Z</time>
      </trkpt>
      <trkpt lat="49.39382" lon="3.37401">
        <ele>39.55</ele>
        <time>2021-07-27T16:11:05Z</time>
      </trkpt>
      <trkpt lat="49.39388" lon="3.37402">
        <ele>39.55</ele>
        <time>2021-07-27T16:11:06Z</time>
      </trkpt>
      <trkpt lat="49.39395" lon="3.37397">
        <ele>39.55</ele>
        <time>2021-07-27T16:11:07Z</time>
      </trkpt>
      <trkpt lat="49.394" lon="3.37391">
        <ele>39.55</ele>
        <time>2021-07-27T16:11:08Z</time>
      </trkpt>
      <trkpt lat="49.39404" lon="3.37384">
        <ele>39.55</ele>
        <time>2021-07-27T16:11:09Z</time>
      </trkpt>
      <trkpt lat="49.39407" lon="3.37376">
        <ele>39.55</ele>
        <time>2021-07-27T16:11:10Z</time>
      </trkpt>
      <trkpt lat="49.39407" lon="3.37366">
        <ele>39.55</ele>
        <time>2021-07-27T16:11:11Z</time>
      </trkpt>
      <trkpt lat="49.39406" lon="3.37356">
        <ele>39.55</ele>
        <time>2021-07-27T16:11:12Z</time>
      </trkpt>
      <trkpt lat="49.39398" lon="3.3734">
        <ele>39.07</ele>
        <time>2021-07-27T16:11:13Z</time>
      </trkpt>
      <trkpt lat="49.39398" lon="3.3734">
        <ele>39.07</ele>
        <time>2021-07-27T16:11:14Z</time>
      </trkpt>
      <trkpt lat="49.3939" lon="3.37312">
        <ele>38.59</ele>
        <time>2021-07-27T16:11:15Z</time>
      </trkpt>
      <trkpt lat="49.3939" lon="3.37312">
        <ele>38.59</ele>
        <time>2021-07-27T16:11:16Z</time>
      </trkpt>
      <trkpt lat="49.39392" lon="3.37295">
        <ele>38.59</ele>
        <time>2021-07-27T16:11:17Z</time>
      </trkpt>
      <trkpt lat="49.39394" lon="3.37278">
        <ele>38.11</ele>
        <time>2021-07-27T16:11:18Z</time>
      </trkpt>
      <trkpt lat="49.39396" lon="3.37242">
        <ele>38.11</ele>
        <time>2021-07-27T16:11:20Z</time>
      </trkpt>
      <trkpt lat="49.39414" lon="3.37128">
        <ele>40.99</ele>
        <time>2021-07-27T16:11:27Z</time>
      </trkpt>
      <trkpt lat="49.39417" lon="3.37118">
        <ele>40.99</ele>
        <time>2021-07-27T16:11:28Z</time>
      </trkpt>
      <trkpt lat="49.39419" lon="3.37111">
        <ele>40.03</ele>
        <time>2021-07-27T16:11:29Z</time>
      </trkpt>
      <trkpt lat="49.39421" lon="3.37106">
        <ele>40.03</ele>
        <time>2021-07-27T16:11:30Z</time>
      </trkpt>
      <trkpt lat="49.39428" lon="3.37103">
        <ele>39.55</ele>
        <time>2021-07-27T16:11:31Z</time>
      </trkpt>
      <trkpt lat="49.39435" lon="3.371">
        <ele>39.07</ele>
        <time>2021-07-27T16:11:32Z</time>
      </trkpt>
      <trkpt lat="49.39437" lon="3.37093">
        <ele>38.59</ele>
        <time>2021-07-27T16:11:33Z</time>
      </trkpt>
      <trkpt lat="49.3944" lon="3.37086">
        <ele>38.59</ele>
        <time>2021-07-27T16:11:34Z</time>
      </trkpt>
      <trkpt lat="49.39438" lon="3.3708">
        <ele>38.59</ele>
        <time>2021-07-27T16:11:35Z</time>
      </trkpt>
      <trkpt lat="49.39435" lon="3.37073">
        <ele>38.59</ele>
        <time>2021-07-27T16:11:36Z</time>
      </trkpt>
      <trkpt lat="49.39432" lon="3.37069">
        <ele>38.59</ele>
        <time>2021-07-27T16:11:37Z</time>
      </trkpt>
      <trkpt lat="49.39427" lon="3.37067">
        <ele>39.55</ele>
        <time>2021-07-27T16:11:38Z</time>
      </trkpt>
      <trkpt lat="49.39423" lon="3.37066">
        <ele>39.07</ele>
        <time>2021-07-27T16:11:39Z</time>
      </trkpt>
      <trkpt lat="49.3942" lon="3.37072">
        <ele>39.07</ele>
        <time>2021-07-27T16:11:40Z</time>
      </trkpt>
      <trkpt lat="49.39417" lon="3.37078">
        <ele>39.07</ele>
        <time>2021-07-27T16:11:41Z</time>
      </trkpt>
      <trkpt lat="49.39414" lon="3.37085">
        <ele>38.59</ele>
        <time>2021-07-27T16:11:42Z</time>
      </trkpt>
      <trkpt lat="49.39413" lon="3.37089">
        <ele>38.59</ele>
        <time>2021-07-27T16:11:43Z</time>
      </trkpt>
      <trkpt lat="49.39416" lon="3.37095">
        <ele>38.11</ele>
        <time>2021-07-27T16:11:44Z</time>
      </trkpt>
      <trkpt lat="49.3942" lon="3.37101">
        <ele>37.15</ele>
        <time>2021-07-27T16:11:45Z</time>
      </trkpt>
      <trkpt lat="49.39423" lon="3.37104">
        <ele>36.67</ele>
        <time>2021-07-27T16:11:46Z</time>
      </trkpt>
      <trkpt lat="49.39429" lon="3.37103">
        <ele>35.71</ele>
        <time>2021-07-27T16:11:47Z</time>
      </trkpt>
      <trkpt lat="49.39435" lon="3.371">
        <ele>36.67</ele>
        <time>2021-07-27T16:11:48Z</time>
      </trkpt>
      <trkpt lat="49.39438" lon="3.37092">
        <ele>36.19</ele>
        <time>2021-07-27T16:11:49Z</time>
      </trkpt>
      <trkpt lat="49.39448" lon="3.37083">
        <ele>36.19</ele>
        <time>2021-07-27T16:11:50Z</time>
      </trkpt>
      <trkpt lat="49.39456" lon="3.3708">
        <ele>36.19</ele>
        <time>2021-07-27T16:11:51Z</time>
      </trkpt>
      <trkpt lat="49.39497" lon="3.37067">
        <ele>33.78</ele>
        <time>2021-07-27T16:11:55Z</time>
      </trkpt>
      <trkpt lat="49.39507" lon="3.37061">
        <ele>34.74</ele>
        <time>2021-07-27T16:11:56Z</time>
      </trkpt>
      <trkpt lat="49.39516" lon="3.37053">
        <ele>34.74</ele>
        <time>2021-07-27T16:11:57Z</time>
      </trkpt>
      <trkpt lat="49.39642" lon="3.36915">
        <ele>37.15</ele>
        <time>2021-07-27T16:12:08Z</time>
      </trkpt>
      <trkpt lat="49.39714" lon="3.36827">
        <ele>38.11</ele>
        <time>2021-07-27T16:12:15Z</time>
      </trkpt>
      <trkpt lat="49.39725" lon="3.36811">
        <ele>38.11</ele>
        <time>2021-07-27T16:12:16Z</time>
      </trkpt>
      <trkpt lat="49.39733" lon="3.36792">
        <ele>39.07</ele>
        <time>2021-07-27T16:12:17Z</time>
      </trkpt>
      <trkpt lat="49.39741" lon="3.36772">
        <ele>40.51</ele>
        <time>2021-07-27T16:12:18Z</time>
      </trkpt>
      <trkpt lat="49.39747" lon="3.36751">
        <ele>41.47</ele>
        <time>2021-07-27T16:12:19Z</time>
      </trkpt>
      <trkpt lat="49.39756" lon="3.36709">
        <ele>42.44</ele>
        <time>2021-07-27T16:12:20Z</time>
      </trkpt>
      <trkpt lat="49.39771" lon="3.36641">
        <ele>43.4</ele>
        <time>2021-07-27T16:12:26Z</time>
      </trkpt>
      <trkpt lat="49.39773" lon="3.3663">
        <ele>43.4</ele>
        <time>2021-07-27T16:12:27Z</time>
      </trkpt>
      <trkpt lat="49.39773" lon="3.3663">
        <ele>43.4</ele>
        <time>2021-07-27T16:12:28Z</time>
      </trkpt>
      <trkpt lat="49.39794" lon="3.36617">
        <ele>43.4</ele>
        <time>2021-07-27T16:12:30Z</time>
      </trkpt>
      <trkpt lat="49.39796" lon="3.36613">
        <ele>43.88</ele>
        <time>2021-07-27T16:12:31Z</time>
      </trkpt>
      <trkpt lat="49.39795" lon="3.36589">
        <ele>43.88</ele>
        <time>2021-07-27T16:12:32Z</time>
      </trkpt>
      <trkpt lat="49.39791" lon="3.36581">
        <ele>43.88</ele>
        <time>2021-07-27T16:12:33Z</time>
      </trkpt>
      <trkpt lat="49.39791" lon="3.36581">
        <ele>43.4</ele>
        <time>2021-07-27T16:12:34Z</time>
      </trkpt>
      <trkpt lat="49.39788" lon="3.36577">
        <ele>42.92</ele>
        <time>2021-07-27T16:12:35Z</time>
      </trkpt>
      <trkpt lat="49.39772" lon="3.36556">
        <ele>42.92</ele>
        <time>2021-07-27T16:12:36Z</time>
      </trkpt>
      <trkpt lat="49.3977" lon="3.36542">
        <ele>42.44</ele>
        <time>2021-07-27T16:12:37Z</time>
      </trkpt>
      <trkpt lat="49.3977" lon="3.36542">
        <ele>41.47</ele>
        <time>2021-07-27T16:12:38Z</time>
      </trkpt>
      <trkpt lat="49.3975" lon="3.36386">
        <ele>39.07</ele>
        <time>2021-07-27T16:12:46Z</time>
      </trkpt>
      <trkpt lat="49.39728" lon="3.36013">
        <ele>40.03</ele>
        <time>2021-07-27T16:13:00Z</time>
      </trkpt>
      <trkpt lat="49.39715" lon="3.35751">
        <ele>40.51</ele>
        <time>2021-07-27T16:13:11Z</time>
      </trkpt>
      <trkpt lat="49.39713" lon="3.35721">
        <ele>40.99</ele>
        <time>2021-07-27T16:13:13Z</time>
      </trkpt>
      <trkpt lat="49.39713" lon="3.35708">
        <ele>40.99</ele>
        <time>2021-07-27T16:13:14Z</time>
      </trkpt>
      <trkpt lat="49.39715" lon="3.35695">
        <ele>41.47</ele>
        <time>2021-07-27T16:13:16Z</time>
      </trkpt>
      <trkpt lat="49.39709" lon="3.35671">
        <ele>41.47</ele>
        <time>2021-07-27T16:13:17Z</time>
      </trkpt>
      <trkpt lat="49.39709" lon="3.35658">
        <ele>41.47</ele>
        <time>2021-07-27T16:13:18Z</time>
      </trkpt>
      <trkpt lat="49.39708" lon="3.35645">
        <ele>40.99</ele>
        <time>2021-07-27T16:13:19Z</time>
      </trkpt>
      <trkpt lat="49.39707" lon="3.35631">
        <ele>40.99</ele>
        <time>2021-07-27T16:13:20Z</time>
      </trkpt>
      <trkpt lat="49.39706" lon="3.35602">
        <ele>40.51</ele>
        <time>2021-07-27T16:13:21Z</time>
      </trkpt>
      <trkpt lat="49.39702" lon="3.35451">
        <ele>41.47</ele>
        <time>2021-07-27T16:13:30Z</time>
      </trkpt>
      <trkpt lat="49.39702" lon="3.35428">
        <ele>40.99</ele>
        <time>2021-07-27T16:13:31Z</time>
      </trkpt>
      <trkpt lat="49.39703" lon="3.35406">
        <ele>41.47</ele>
        <time>2021-07-27T16:13:32Z</time>
      </trkpt>
      <trkpt lat="49.39706" lon="3.35383">
        <ele>42.92</ele>
        <time>2021-07-27T16:13:33Z</time>
      </trkpt>
      <trkpt lat="49.39719" lon="3.3534">
        <ele>43.4</ele>
        <time>2021-07-27T16:13:34Z</time>
      </trkpt>
      <trkpt lat="49.39726" lon="3.3532">
        <ele>43.4</ele>
        <time>2021-07-27T16:13:35Z</time>
      </trkpt>
      <trkpt lat="49.39726" lon="3.3532">
        <ele>43.4</ele>
        <time>2021-07-27T16:13:36Z</time>
      </trkpt>
      <trkpt lat="49.39733" lon="3.35303">
        <ele>42.92</ele>
        <time>2021-07-27T16:13:37Z</time>
      </trkpt>
      <trkpt lat="49.3977" lon="3.35189">
        <ele>41.95</ele>
        <time>2021-07-27T16:13:44Z</time>
      </trkpt>
      <trkpt lat="49.39772" lon="3.35173">
        <ele>42.44</ele>
        <time>2021-07-27T16:13:45Z</time>
      </trkpt>
      <trkpt lat="49.39773" lon="3.35154">
        <ele>42.92</ele>
        <time>2021-07-27T16:13:46Z</time>
      </trkpt>
      <trkpt lat="49.39773" lon="3.35136">
        <ele>42.44</ele>
        <time>2021-07-27T16:13:47Z</time>
      </trkpt>
      <trkpt lat="49.39772" lon="3.35117">
        <ele>42.44</ele>
        <time>2021-07-27T16:13:48Z</time>
      </trkpt>
      <trkpt lat="49.39769" lon="3.35099">
        <ele>42.92</ele>
        <time>2021-07-27T16:13:49Z</time>
      </trkpt>
      <trkpt lat="49.39765" lon="3.3508">
        <ele>41.95</ele>
        <time>2021-07-27T16:13:50Z</time>
      </trkpt>
      <trkpt lat="49.3976" lon="3.35063">
        <ele>41.47</ele>
        <time>2021-07-27T16:13:51Z</time>
      </trkpt>
      <trkpt lat="49.39752" lon="3.35048">
        <ele>40.99</ele>
        <time>2021-07-27T16:13:52Z</time>
      </trkpt>
      <trkpt lat="49.39743" lon="3.35035">
        <ele>41.47</ele>
        <time>2021-07-27T16:13:53Z</time>
      </trkpt>
      <trkpt lat="49.39733" lon="3.35022">
        <ele>41.95</ele>
        <time>2021-07-27T16:13:54Z</time>
      </trkpt>
      <trkpt lat="49.39598" lon="3.34811">
        <ele>40.03</ele>
        <time>2021-07-27T16:14:10Z</time>
      </trkpt>
      <trkpt lat="49.3951" lon="3.34675">
        <ele>42.44</ele>
        <time>2021-07-27T16:14:22Z</time>
      </trkpt>
      <trkpt lat="49.39428" lon="3.34549">
        <ele>42.44</ele>
        <time>2021-07-27T16:14:37Z</time>
      </trkpt>
      <trkpt lat="49.39328" lon="3.34397">
        <ele>41.95</ele>
        <time>2021-07-27T16:14:51Z</time>
      </trkpt>
      <trkpt lat="49.39214" lon="3.34218">
        <ele>40.51</ele>
        <time>2021-07-27T16:15:08Z</time>
      </trkpt>
      <trkpt lat="49.39082" lon="3.34019">
        <ele>40.99</ele>
        <time>2021-07-27T16:15:25Z</time>
      </trkpt>
      <trkpt lat="49.38934" lon="3.33791">
        <ele>40.99</ele>
        <time>2021-07-27T16:15:45Z</time>
      </trkpt>
      <trkpt lat="49.38831" lon="3.33634">
        <ele>42.44</ele>
        <time>2021-07-27T16:16:00Z</time>
      </trkpt>
      <trkpt lat="49.38749" lon="3.33508">
        <ele>41.47</ele>
        <time>2021-07-27T16:16:13Z</time>
      </trkpt>
      <trkpt lat="49.38651" lon="3.33352">
        <ele>41.47</ele>
        <time>2021-07-27T16:16:31Z</time>
      </trkpt>
      <trkpt lat="49.38621" lon="3.33311">
        <ele>40.51</ele>
        <time>2021-07-27T16:16:39Z</time>
      </trkpt>
      <trkpt lat="49.38609" lon="3.33292">
        <ele>40.03</ele>
        <time>2021-07-27T16:17:23Z</time>
      </trkpt>
      <trkpt lat="49.38607" lon="3.33285">
        <ele>40.03</ele>
        <time>2021-07-27T16:17:24Z</time>
      </trkpt>
      <trkpt lat="49.38603" lon="3.33271">
        <ele>40.03</ele>
        <time>2021-07-27T16:17:25Z</time>
      </trkpt>
      <trkpt lat="49.38603" lon="3.33271">
        <ele>40.03</ele>
        <time>2021-07-27T16:17:26Z</time>
      </trkpt>
      <trkpt lat="49.38587" lon="3.33268">
        <ele>40.03</ele>
        <time>2021-07-27T16:17:27Z</time>
      </trkpt>
      <trkpt lat="49.3858" lon="3.33274">
        <ele>39.55</ele>
        <time>2021-07-27T16:17:28Z</time>
      </trkpt>
      <trkpt lat="49.38577" lon="3.33274">
        <ele>39.55</ele>
        <time>2021-07-27T16:17:29Z</time>
      </trkpt>
      <trkpt lat="49.38486" lon="3.33282">
        <ele>39.55</ele>
        <time>2021-07-27T16:17:41Z</time>
      </trkpt>
      <trkpt lat="49.38426" lon="3.33287">
        <ele>37.63</ele>
        <time>2021-07-27T16:17:50Z</time>
      </trkpt>
      <trkpt lat="49.38406" lon="3.33288">
        <ele>35.23</ele>
        <time>2021-07-27T16:17:56Z</time>
      </trkpt>
      <trkpt lat="49.38325" lon="3.33293">
        <ele>37.15</ele>
        <time>2021-07-27T16:18:08Z</time>
      </trkpt>
      <trkpt lat="49.38246" lon="3.33306">
        <ele>37.63</ele>
        <time>2021-07-27T16:18:21Z</time>
      </trkpt>
      <trkpt lat="49.38224" lon="3.33311">
        <ele>38.11</ele>
        <time>2021-07-27T16:18:51Z</time>
      </trkpt>
      <trkpt lat="49.38175" lon="3.33321">
        <ele>38.59</ele>
        <time>2021-07-27T16:19:00Z</time>
      </trkpt>
      <trkpt lat="49.38158" lon="3.33325">
        <ele>38.11</ele>
        <time>2021-07-27T16:19:11Z</time>
      </trkpt>
      <trkpt lat="49.38148" lon="3.33328">
        <ele>38.11</ele>
        <time>2021-07-27T16:19:26Z</time>
      </trkpt>
      <trkpt lat="49.38132" lon="3.33331">
        <ele>37.15</ele>
        <time>2021-07-27T16:19:44Z</time>
      </trkpt>
      <trkpt lat="49.38116" lon="3.33334">
        <ele>37.15</ele>
        <time>2021-07-27T16:20:06Z</time>
      </trkpt>
      <trkpt lat="49.38101" lon="3.33338">
        <ele>37.15</ele>
        <time>2021-07-27T16:20:18Z</time>
      </trkpt>
      <trkpt lat="49.38084" lon="3.33342">
        <ele>37.63</ele>
        <time>2021-07-27T16:20:32Z</time>
      </trkpt>
      <trkpt lat="49.38074" lon="3.33344">
        <ele>38.11</ele>
        <time>2021-07-27T16:21:03Z</time>
      </trkpt>
      <trkpt lat="49.38061" lon="3.33347">
        <ele>38.11</ele>
        <time>2021-07-27T16:21:20Z</time>
      </trkpt>
      <trkpt lat="49.38044" lon="3.33346">
        <ele>39.07</ele>
        <time>2021-07-27T16:21:45Z</time>
      </trkpt>
      <trkpt lat="49.38026" lon="3.33344">
        <ele>39.55</ele>
        <time>2021-07-27T16:21:58Z</time>
      </trkpt>
      <trkpt lat="49.38005" lon="3.3334">
        <ele>40.99</ele>
        <time>2021-07-27T16:22:12Z</time>
      </trkpt>
      <trkpt lat="49.37987" lon="3.33323">
        <ele>41.47</ele>
        <time>2021-07-27T16:22:27Z</time>
      </trkpt>
      <trkpt lat="49.37949" lon="3.33281">
        <ele>41.47</ele>
        <time>2021-07-27T16:22:41Z</time>
      </trkpt>
      <trkpt lat="49.37933" lon="3.33264">
        <ele>40.99</ele>
        <time>2021-07-27T16:23:00Z</time>
      </trkpt>
      <trkpt lat="49.37909" lon="3.33239">
        <ele>40.99</ele>
        <time>2021-07-27T16:23:11Z</time>
      </trkpt>
      <trkpt lat="49.37902" lon="3.33232">
        <ele>40.99</ele>
        <time>2021-07-27T16:23:37Z</time>
      </trkpt>
      <trkpt lat="49.37874" lon="3.33203">
        <ele>40.99</ele>
        <time>2021-07-27T16:23:54Z</time>
      </trkpt>
      <trkpt lat="49.37851" lon="3.33177">
        <ele>41.47</ele>
        <time>2021-07-27T16:24:04Z</time>
      </trkpt>
      <trkpt lat="49.37821" lon="3.33146">
        <ele>41.95</ele>
        <time>2021-07-27T16:24:20Z</time>
      </trkpt>
      <trkpt lat="49.37809" lon="3.33134">
        <ele>42.92</ele>
        <time>2021-07-27T16:24:28Z</time>
      </trkpt>
      <trkpt lat="49.37785" lon="3.33109">
        <ele>44.36</ele>
        <time>2021-07-27T16:24:41Z</time>
      </trkpt>
      <trkpt lat="49.37765" lon="3.33087">
        <ele>44.84</ele>
        <time>2021-07-27T16:24:49Z</time>
      </trkpt>
      <trkpt lat="49.37754" lon="3.33075">
        <ele>46.28</ele>
        <time>2021-07-27T16:24:58Z</time>
      </trkpt>
      <trkpt lat="49.37734" lon="3.33055">
        <ele>46.76</ele>
        <time>2021-07-27T16:25:06Z</time>
      </trkpt>
      <trkpt lat="49.37712" lon="3.33033">
        <ele>47.24</ele>
        <time>2021-07-27T16:25:16Z</time>
      </trkpt>
      <trkpt lat="49.37699" lon="3.33019">
        <ele>47.24</ele>
        <time>2021-07-27T16:25:38Z</time>
      </trkpt>
      <trkpt lat="49.37691" lon="3.33011">
        <ele>47.24</ele>
        <time>2021-07-27T16:25:52Z</time>
      </trkpt>
      <trkpt lat="49.37685" lon="3.33005">
        <ele>47.24</ele>
        <time>2021-07-27T16:26:04Z</time>
      </trkpt>
      <trkpt lat="49.37669" lon="3.32989">
        <ele>46.76</ele>
        <time>2021-07-27T16:26:18Z</time>
      </trkpt>
      <trkpt lat="49.37664" lon="3.32983">
        <ele>47.24</ele>
        <time>2021-07-27T16:26:29Z</time>
      </trkpt>
      <trkpt lat="49.37649" lon="3.32965">
        <ele>47.24</ele>
        <time>2021-07-27T16:26:37Z</time>
      </trkpt>
      <trkpt lat="49.37643" lon="3.32942">
        <ele>47.24</ele>
        <time>2021-07-27T16:26:42Z</time>
      </trkpt>
      <trkpt lat="49.37648" lon="3.32927">
        <ele>47.24</ele>
        <time>2021-07-27T16:26:43Z</time>
      </trkpt>
      <trkpt lat="49.37652" lon="3.32923">
        <ele>47.24</ele>
        <time>2021-07-27T16:26:44Z</time>
      </trkpt>
      <trkpt lat="49.37694" lon="3.32872">
        <ele>46.76</ele>
        <time>2021-07-27T16:26:58Z</time>
      </trkpt>
      <trkpt lat="49.37701" lon="3.32864">
        <ele>46.76</ele>
        <time>2021-07-27T16:26:59Z</time>
      </trkpt>
      <trkpt lat="49.37701" lon="3.32864">
        <ele>46.76</ele>
        <time>2021-07-27T16:27:00Z</time>
      </trkpt>
      <trkpt lat="49.37709" lon="3.32864">
        <ele>46.76</ele>
        <time>2021-07-27T16:27:01Z</time>
      </trkpt>
      <trkpt lat="49.37713" lon="3.32865">
        <ele>46.76</ele>
        <time>2021-07-27T16:27:02Z</time>
      </trkpt>
      <trkpt lat="49.37718" lon="3.32866">
        <ele>46.28</ele>
        <time>2021-07-27T16:27:03Z</time>
      </trkpt>
      <trkpt lat="49.37738" lon="3.32871">
        <ele>45.8</ele>
        <time>2021-07-27T16:27:08Z</time>
      </trkpt>
      <trkpt lat="49.3774" lon="3.32872">
        <ele>45.32</ele>
        <time>2021-07-27T16:27:09Z</time>
      </trkpt>
      <trkpt lat="49.37745" lon="3.32867">
        <ele>44.36</ele>
        <time>2021-07-27T16:27:10Z</time>
      </trkpt>
      <trkpt lat="49.37745" lon="3.32796">
        <ele>48.2</ele>
        <time>2021-07-27T16:27:20Z</time>
      </trkpt>
      <trkpt lat="49.37745" lon="3.32793">
        <ele>48.68</ele>
        <time>2021-07-27T16:27:22Z</time>
      </trkpt>
      <trkpt lat="49.37744" lon="3.32778">
        <ele>49.16</ele>
        <time>2021-07-27T16:27:36Z</time>
      </trkpt>
      <trkpt lat="49.37744" lon="3.32778">
        <ele>49.16</ele>
        <time>2021-07-27T16:27:49Z</time>
      </trkpt>
      <trkpt lat="49.37745" lon="3.32788">
        <ele>49.16</ele>
        <time>2021-07-27T16:27:50Z</time>
      </trkpt>
      <trkpt lat="49.37745" lon="3.32785">
        <ele>48.68</ele>
        <time>2021-07-27T16:27:51Z</time>
      </trkpt>
      <trkpt lat="49.37745" lon="3.32781">
        <ele>48.68</ele>
        <time>2021-07-27T16:27:52Z</time>
      </trkpt>
      <trkpt lat="49.37745" lon="3.32779">
        <ele>48.68</ele>
        <time>2021-07-27T16:27:53Z</time>
      </trkpt>
      <trkpt lat="49.37746" lon="3.32775">
        <ele>48.2</ele>
        <time>2021-07-27T16:27:54Z</time>
      </trkpt>
      <trkpt lat="49.37746" lon="3.3277">
        <ele>48.2</ele>
        <time>2021-07-27T16:27:55Z</time>
      </trkpt>
      <trkpt lat="49.37746" lon="3.32765">
        <ele>48.2</ele>
        <time>2021-07-27T16:27:56Z</time>
      </trkpt>
      <trkpt lat="49.37747" lon="3.32759">
        <ele>48.2</ele>
        <time>2021-07-27T16:27:57Z</time>
      </trkpt>
      <trkpt lat="49.37754" lon="3.32678">
        <ele>48.2</ele>
        <time>2021-07-27T16:28:08Z</time>
      </trkpt>
      <trkpt lat="49.37762" lon="3.32656">
        <ele>48.68</ele>
        <time>2021-07-27T16:28:12Z</time>
      </trkpt>
      <trkpt lat="49.37761" lon="3.3265">
        <ele>48.68</ele>
        <time>2021-07-27T16:28:13Z</time>
      </trkpt>
      <trkpt lat="49.37759" lon="3.32644">
        <ele>48.68</ele>
        <time>2021-07-27T16:28:14Z</time>
      </trkpt>
      <trkpt lat="49.37751" lon="3.32617">
        <ele>48.68</ele>
        <time>2021-07-27T16:28:25Z</time>
      </trkpt>
      <trkpt lat="49.37746" lon="3.32608">
        <ele>48.68</ele>
        <time>2021-07-27T16:28:26Z</time>
      </trkpt>
      <trkpt lat="49.37743" lon="3.3261">
        <ele>48.68</ele>
        <time>2021-07-27T16:28:31Z</time>
      </trkpt>
      <trkpt lat="49.37743" lon="3.3261">
        <ele>48.68</ele>
        <time>2021-07-27T16:28:32Z</time>
      </trkpt>
      <trkpt lat="49.37741" lon="3.32611">
        <ele>48.68</ele>
        <time>2021-07-27T16:28:33Z</time>
      </trkpt>
      <trkpt lat="49.3774" lon="3.32619">
        <ele>48.68</ele>
        <time>2021-07-27T16:28:34Z</time>
      </trkpt>
      <trkpt lat="49.37741" lon="3.32622">
        <ele>48.68</ele>
        <time>2021-07-27T16:28:35Z</time>
      </trkpt>
      <trkpt lat="49.37742" lon="3.32625">
        <ele>48.68</ele>
        <time>2021-07-27T16:28:36Z</time>
      </trkpt>
      <trkpt lat="49.37754" lon="3.32663">
        <ele>47.72</ele>
        <time>2021-07-27T16:28:47Z</time>
      </trkpt>
      <trkpt lat="49.37754" lon="3.32663">
        <ele>47.72</ele>
        <time>2021-07-27T16:28:48Z</time>
      </trkpt>
      <trkpt lat="49.37753" lon="3.32683">
        <ele>47.72</ele>
        <time>2021-07-27T16:28:49Z</time>
      </trkpt>
      <trkpt lat="49.37749" lon="3.32732">
        <ele>46.28</ele>
        <time>2021-07-27T16:28:56Z</time>
      </trkpt>
      <trkpt lat="49.37748" lon="3.32748">
        <ele>45.8</ele>
        <time>2021-07-27T16:28:57Z</time>
      </trkpt>
      <trkpt lat="49.37747" lon="3.32762">
        <ele>45.32</ele>
        <time>2021-07-27T16:29:00Z</time>
      </trkpt>
      <trkpt lat="49.37729" lon="3.3281">
        <ele>44.36</ele>
        <time>2021-07-27T16:29:10Z</time>
      </trkpt>
      <trkpt lat="49.37708" lon="3.32852">
        <ele>42.92</ele>
        <time>2021-07-27T16:29:24Z</time>
      </trkpt>
      <trkpt lat="49.37708" lon="3.32852">
        <ele>42.92</ele>
        <time>2021-07-27T16:29:33Z</time>
      </trkpt>
      <trkpt lat="49.37705" lon="3.32857">
        <ele>42.92</ele>
        <time>2021-07-27T16:29:34Z</time>
      </trkpt>
      <trkpt lat="49.37734" lon="3.3287">
        <ele>44.36</ele>
        <time>2021-07-27T16:29:49Z</time>
      </trkpt>
      <trkpt lat="49.37734" lon="3.3287">
        <ele>44.36</ele>
        <time>2021-07-27T16:29:55Z</time>
      </trkpt>
      <trkpt lat="49.37734" lon="3.3287">
        <ele>43.88</ele>
        <time>2021-07-27T16:29:56Z</time>
      </trkpt>
      <trkpt lat="49.37742" lon="3.32872">
        <ele>43.88</ele>
        <time>2021-07-27T16:29:57Z</time>
      </trkpt>
      <trkpt lat="49.37742" lon="3.32872">
        <ele>43.88</ele>
        <time>2021-07-27T16:29:58Z</time>
      </trkpt>
      <trkpt lat="49.37745" lon="3.32873">
        <ele>44.36</ele>
        <time>2021-07-27T16:29:59Z</time>
      </trkpt>
      <trkpt lat="49.37778" lon="3.32889">
        <ele>44.36</ele>
        <time>2021-07-27T16:30:11Z</time>
      </trkpt>
      <trkpt lat="49.3783" lon="3.32868">
        <ele>46.76</ele>
        <time>2021-07-27T16:30:21Z</time>
      </trkpt>
      <trkpt lat="49.37874" lon="3.32849">
        <ele>50.13</ele>
        <time>2021-07-27T16:30:31Z</time>
      </trkpt>
      <trkpt lat="49.37876" lon="3.32851">
        <ele>50.13</ele>
        <time>2021-07-27T16:30:32Z</time>
      </trkpt>
      <trkpt lat="49.37879" lon="3.32854">
        <ele>50.13</ele>
        <time>2021-07-27T16:30:33Z</time>
      </trkpt>
      <trkpt lat="49.37881" lon="3.32857">
        <ele>50.61</ele>
        <time>2021-07-27T16:30:34Z</time>
      </trkpt>
      <trkpt lat="49.37884" lon="3.32859">
        <ele>50.61</ele>
        <time>2021-07-27T16:30:35Z</time>
      </trkpt>
      <trkpt lat="49.37887" lon="3.32862">
        <ele>50.13</ele>
        <time>2021-07-27T16:30:36Z</time>
      </trkpt>
      <trkpt lat="49.37888" lon="3.32871">
        <ele>50.13</ele>
        <time>2021-07-27T16:30:37Z</time>
      </trkpt>
      <trkpt lat="49.37889" lon="3.32877">
        <ele>49.65</ele>
        <time>2021-07-27T16:30:38Z</time>
      </trkpt>
      <trkpt lat="49.3789" lon="3.32884">
        <ele>49.16</ele>
        <time>2021-07-27T16:30:39Z</time>
      </trkpt>
      <trkpt lat="49.37902" lon="3.32983">
        <ele>48.68</ele>
        <time>2021-07-27T16:30:49Z</time>
      </trkpt>
      <trkpt lat="49.37905" lon="3.3301">
        <ele>48.68</ele>
        <time>2021-07-27T16:30:52Z</time>
      </trkpt>
      <trkpt lat="49.37905" lon="3.33017">
        <ele>48.68</ele>
        <time>2021-07-27T16:30:53Z</time>
      </trkpt>
      <trkpt lat="49.37908" lon="3.33048">
        <ele>47.72</ele>
        <time>2021-07-27T16:31:01Z</time>
      </trkpt>
      <trkpt lat="49.37928" lon="3.33072">
        <ele>45.8</ele>
        <time>2021-07-27T16:31:09Z</time>
      </trkpt>
      <trkpt lat="49.37946" lon="3.33109">
        <ele>43.4</ele>
        <time>2021-07-27T16:31:19Z</time>
      </trkpt>
      <trkpt lat="49.37943" lon="3.33119">
        <ele>43.88</ele>
        <time>2021-07-27T16:31:21Z</time>
      </trkpt>
      <trkpt lat="49.37943" lon="3.33119">
        <ele>43.88</ele>
        <time>2021-07-27T16:31:22Z</time>
      </trkpt>
      <trkpt lat="49.3794" lon="3.3312">
        <ele>43.88</ele>
        <time>2021-07-27T16:31:23Z</time>
      </trkpt>
      <trkpt lat="49.37937" lon="3.33121">
        <ele>43.4</ele>
        <time>2021-07-27T16:31:24Z</time>
      </trkpt>
      <trkpt lat="49.37933" lon="3.33122">
        <ele>43.4</ele>
        <time>2021-07-27T16:31:25Z</time>
      </trkpt>
      <trkpt lat="49.37919" lon="3.33127">
        <ele>44.36</ele>
        <time>2021-07-27T16:31:29Z</time>
      </trkpt>
      <trkpt lat="49.3791" lon="3.3313">
        <ele>44.84</ele>
        <time>2021-07-27T16:31:31Z</time>
      </trkpt>
      <trkpt lat="49.37904" lon="3.33132">
        <ele>44.84</ele>
        <time>2021-07-27T16:31:32Z</time>
      </trkpt>
      <trkpt lat="49.37899" lon="3.33134">
        <ele>44.84</ele>
        <time>2021-07-27T16:31:33Z</time>
      </trkpt>
      <trkpt lat="49.3789" lon="3.33142">
        <ele>44.84</ele>
        <time>2021-07-27T16:31:35Z</time>
      </trkpt>
      <trkpt lat="49.3788" lon="3.3315">
        <ele>44.84</ele>
        <time>2021-07-27T16:31:36Z</time>
      </trkpt>
      <trkpt lat="49.37877" lon="3.33154">
        <ele>44.84</ele>
        <time>2021-07-27T16:31:37Z</time>
      </trkpt>
      <trkpt lat="49.37849" lon="3.33175">
        <ele>43.4</ele>
        <time>2021-07-27T16:31:45Z</time>
      </trkpt>
      <trkpt lat="49.37847" lon="3.33172">
        <ele>42.92</ele>
        <time>2021-07-27T16:31:46Z</time>
      </trkpt>
      <trkpt lat="49.37843" lon="3.33168">
        <ele>43.4</ele>
        <time>2021-07-27T16:31:47Z</time>
      </trkpt>
      <trkpt lat="49.37819" lon="3.33145">
        <ele>46.76</ele>
        <time>2021-07-27T16:31:59Z</time>
      </trkpt>
      <trkpt lat="49.378" lon="3.33124">
        <ele>47.72</ele>
        <time>2021-07-27T16:32:22Z</time>
      </trkpt>
      <trkpt lat="49.37764" lon="3.33086">
        <ele>48.2</ele>
        <time>2021-07-27T16:32:34Z</time>
      </trkpt>
      <trkpt lat="49.37747" lon="3.33068">
        <ele>48.2</ele>
        <time>2021-07-27T16:32:48Z</time>
      </trkpt>
      <trkpt lat="49.3772" lon="3.3304">
        <ele>48.2</ele>
        <time>2021-07-27T16:33:03Z</time>
      </trkpt>
      <trkpt lat="49.37687" lon="3.33007">
        <ele>48.68</ele>
        <time>2021-07-27T16:33:20Z</time>
      </trkpt>
      <trkpt lat="49.37671" lon="3.3299">
        <ele>48.68</ele>
        <time>2021-07-27T16:33:33Z</time>
      </trkpt>
      <trkpt lat="49.37665" lon="3.32985">
        <ele>48.68</ele>
        <time>2021-07-27T16:33:50Z</time>
      </trkpt>
      <trkpt lat="49.37648" lon="3.32964">
        <ele>48.68</ele>
        <time>2021-07-27T16:33:59Z</time>
      </trkpt>
      <trkpt lat="49.37648" lon="3.32964">
        <ele>48.68</ele>
        <time>2021-07-27T16:34:00Z</time>
      </trkpt>
      <trkpt lat="49.37644" lon="3.32949">
        <ele>49.16</ele>
        <time>2021-07-27T16:34:02Z</time>
      </trkpt>
      <trkpt lat="49.37643" lon="3.32941">
        <ele>49.16</ele>
        <time>2021-07-27T16:34:03Z</time>
      </trkpt>
      <trkpt lat="49.37639" lon="3.32934">
        <ele>49.16</ele>
        <time>2021-07-27T16:34:04Z</time>
      </trkpt>
      <trkpt lat="49.37634" lon="3.32932">
        <ele>49.16</ele>
        <time>2021-07-27T16:34:05Z</time>
      </trkpt>
      <trkpt lat="49.37629" lon="3.32929">
        <ele>49.16</ele>
        <time>2021-07-27T16:34:06Z</time>
      </trkpt>
      <trkpt lat="49.37627" lon="3.32929">
        <ele>48.68</ele>
        <time>2021-07-27T16:34:07Z</time>
      </trkpt>
      <trkpt lat="49.37616" lon="3.32937">
        <ele>48.2</ele>
        <time>2021-07-27T16:34:08Z</time>
      </trkpt>
      <trkpt lat="49.37608" lon="3.32935">
        <ele>48.68</ele>
        <time>2021-07-27T16:34:09Z</time>
      </trkpt>
      <trkpt lat="49.37599" lon="3.32929">
        <ele>48.68</ele>
        <time>2021-07-27T16:34:10Z</time>
      </trkpt>
      <trkpt lat="49.37592" lon="3.32923">
        <ele>48.68</ele>
        <time>2021-07-27T16:34:11Z</time>
      </trkpt>
      <trkpt lat="49.37493" lon="3.32849">
        <ele>47.72</ele>
        <time>2021-07-27T16:34:23Z</time>
      </trkpt>
      <trkpt lat="49.37478" lon="3.32823">
        <ele>48.2</ele>
        <time>2021-07-27T16:34:28Z</time>
      </trkpt>
      <trkpt lat="49.37474" lon="3.32816">
        <ele>48.2</ele>
        <time>2021-07-27T16:34:29Z</time>
      </trkpt>
      <trkpt lat="49.3747" lon="3.32794">
        <ele>48.68</ele>
        <time>2021-07-27T16:34:30Z</time>
      </trkpt>
      <trkpt lat="49.3747" lon="3.32794">
        <ele>49.16</ele>
        <time>2021-07-27T16:34:31Z</time>
      </trkpt>
      <trkpt lat="49.37467" lon="3.32782">
        <ele>49.16</ele>
        <time>2021-07-27T16:34:32Z</time>
      </trkpt>
      <trkpt lat="49.37443" lon="3.32648">
        <ele>53.01</ele>
        <time>2021-07-27T16:34:45Z</time>
      </trkpt>
      <trkpt lat="49.37439" lon="3.32627">
        <ele>53.49</ele>
        <time>2021-07-27T16:34:48Z</time>
      </trkpt>
      <trkpt lat="49.37438" lon="3.32624">
        <ele>53.49</ele>
        <time>2021-07-27T16:34:49Z</time>
      </trkpt>
      <trkpt lat="49.37433" lon="3.3262">
        <ele>53.49</ele>
        <time>2021-07-27T16:34:50Z</time>
      </trkpt>
      <trkpt lat="49.37429" lon="3.32617">
        <ele>53.49</ele>
        <time>2021-07-27T16:34:51Z</time>
      </trkpt>
      <trkpt lat="49.37424" lon="3.32614">
        <ele>53.01</ele>
        <time>2021-07-27T16:34:52Z</time>
      </trkpt>
      <trkpt lat="49.3742" lon="3.32611">
        <ele>52.53</ele>
        <time>2021-07-27T16:34:53Z</time>
      </trkpt>
      <trkpt lat="49.37349" lon="3.32564">
        <ele>49.16</ele>
        <time>2021-07-27T16:35:04Z</time>
      </trkpt>
      <trkpt lat="49.37217" lon="3.32462">
        <ele>48.2</ele>
        <time>2021-07-27T16:35:18Z</time>
      </trkpt>
      <trkpt lat="49.37145" lon="3.3235">
        <ele>50.13</ele>
        <time>2021-07-27T16:35:30Z</time>
      </trkpt>
      <trkpt lat="49.37119" lon="3.32309">
        <ele>50.61</ele>
        <time>2021-07-27T16:35:38Z</time>
      </trkpt>
      <trkpt lat="49.37112" lon="3.32294">
        <ele>50.61</ele>
        <time>2021-07-27T16:35:39Z</time>
      </trkpt>
      <trkpt lat="49.37109" lon="3.32286">
        <ele>50.61</ele>
        <time>2021-07-27T16:35:40Z</time>
      </trkpt>
      <trkpt lat="49.37097" lon="3.32258">
        <ele>50.61</ele>
        <time>2021-07-27T16:35:45Z</time>
      </trkpt>
      <trkpt lat="49.37096" lon="3.32249">
        <ele>50.61</ele>
        <time>2021-07-27T16:35:46Z</time>
      </trkpt>
      <trkpt lat="49.37064" lon="3.32144">
        <ele>53.97</ele>
        <time>2021-07-27T16:35:56Z</time>
      </trkpt>
      <trkpt lat="49.36999" lon="3.3197">
        <ele>58.3</ele>
        <time>2021-07-27T16:36:07Z</time>
      </trkpt>
      <trkpt lat="49.36891" lon="3.3168">
        <ele>65.51</ele>
        <time>2021-07-27T16:36:23Z</time>
      </trkpt>
      <trkpt lat="49.36781" lon="3.31382">
        <ele>60.7</ele>
        <time>2021-07-27T16:36:39Z</time>
      </trkpt>
      <trkpt lat="49.36712" lon="3.31191">
        <ele>60.7</ele>
        <time>2021-07-27T16:36:49Z</time>
      </trkpt>
      <trkpt lat="49.36685" lon="3.3112">
        <ele>61.66</ele>
        <time>2021-07-27T16:36:57Z</time>
      </trkpt>
      <trkpt lat="49.36685" lon="3.31117">
        <ele>61.18</ele>
        <time>2021-07-27T16:37:05Z</time>
      </trkpt>
      <trkpt lat="49.36684" lon="3.31109">
        <ele>61.18</ele>
        <time>2021-07-27T16:37:14Z</time>
      </trkpt>
      <trkpt lat="49.36683" lon="3.31102">
        <ele>61.18</ele>
        <time>2021-07-27T16:37:15Z</time>
      </trkpt>
      <trkpt lat="49.36682" lon="3.31095">
        <ele>61.18</ele>
        <time>2021-07-27T16:37:16Z</time>
      </trkpt>
      <trkpt lat="49.36687" lon="3.31037">
        <ele>62.62</ele>
        <time>2021-07-27T16:37:22Z</time>
      </trkpt>
      <trkpt lat="49.36692" lon="3.31011">
        <ele>62.62</ele>
        <time>2021-07-27T16:37:23Z</time>
      </trkpt>
      <trkpt lat="49.36698" lon="3.30994">
        <ele>62.62</ele>
        <time>2021-07-27T16:37:24Z</time>
      </trkpt>
      <trkpt lat="49.36707" lon="3.30981">
        <ele>61.66</ele>
        <time>2021-07-27T16:37:25Z</time>
      </trkpt>
      <trkpt lat="49.36707" lon="3.30981">
        <ele>59.74</ele>
        <time>2021-07-27T16:37:26Z</time>
      </trkpt>
      <trkpt lat="49.36716" lon="3.3097">
        <ele>58.78</ele>
        <time>2021-07-27T16:37:27Z</time>
      </trkpt>
      <trkpt lat="49.36807" lon="3.30852">
        <ele>55.89</ele>
        <time>2021-07-27T16:37:35Z</time>
      </trkpt>
      <trkpt lat="49.36964" lon="3.30629">
        <ele>57.82</ele>
        <time>2021-07-27T16:37:46Z</time>
      </trkpt>
      <trkpt lat="49.37136" lon="3.30339">
        <ele>54.93</ele>
        <time>2021-07-27T16:37:57Z</time>
      </trkpt>
      <trkpt lat="49.37415" lon="3.29842">
        <ele>48.2</ele>
        <time>2021-07-27T16:38:13Z</time>
      </trkpt>
      <trkpt lat="49.37543" lon="3.29538">
        <ele>46.76</ele>
        <time>2021-07-27T16:38:21Z</time>
      </trkpt>
      <trkpt lat="49.37637" lon="3.29209">
        <ele>46.76</ele>
        <time>2021-07-27T16:38:31Z</time>
      </trkpt>
      <trkpt lat="49.37769" lon="3.2892">
        <ele>45.32</ele>
        <time>2021-07-27T16:38:40Z</time>
      </trkpt>
      <trkpt lat="49.38025" lon="3.28397">
        <ele>44.84</ele>
        <time>2021-07-27T16:38:57Z</time>
      </trkpt>
      <trkpt lat="49.3812" lon="3.28176">
        <ele>41.95</ele>
        <time>2021-07-27T16:39:05Z</time>
      </trkpt>
      <trkpt lat="49.38175" lon="3.28036">
        <ele>44.84</ele>
        <time>2021-07-27T16:39:12Z</time>
      </trkpt>
      <trkpt lat="49.38185" lon="3.28016">
        <ele>45.32</ele>
        <time>2021-07-27T16:39:14Z</time>
      </trkpt>
      <trkpt lat="49.3819" lon="3.28005">
        <ele>45.32</ele>
        <time>2021-07-27T16:39:15Z</time>
      </trkpt>
      <trkpt lat="49.38194" lon="3.27998">
        <ele>45.32</ele>
        <time>2021-07-27T16:39:16Z</time>
      </trkpt>
      <trkpt lat="49.38214" lon="3.27992">
        <ele>45.32</ele>
        <time>2021-07-27T16:39:18Z</time>
      </trkpt>
      <trkpt lat="49.38228" lon="3.27974">
        <ele>45.32</ele>
        <time>2021-07-27T16:39:19Z</time>
      </trkpt>
      <trkpt lat="49.38228" lon="3.27974">
        <ele>45.32</ele>
        <time>2021-07-27T16:39:20Z</time>
      </trkpt>
      <trkpt lat="49.38231" lon="3.27961">
        <ele>45.32</ele>
        <time>2021-07-27T16:39:21Z</time>
      </trkpt>
      <trkpt lat="49.38232" lon="3.27949">
        <ele>45.32</ele>
        <time>2021-07-27T16:39:22Z</time>
      </trkpt>
      <trkpt lat="49.38232" lon="3.27935">
        <ele>45.32</ele>
        <time>2021-07-27T16:39:23Z</time>
      </trkpt>
      <trkpt lat="49.38232" lon="3.2792">
        <ele>44.36</ele>
        <time>2021-07-27T16:39:24Z</time>
      </trkpt>
      <trkpt lat="49.38222" lon="3.27897">
        <ele>44.84</ele>
        <time>2021-07-27T16:39:25Z</time>
      </trkpt>
      <trkpt lat="49.38222" lon="3.27897">
        <ele>44.36</ele>
        <time>2021-07-27T16:39:26Z</time>
      </trkpt>
      <trkpt lat="49.38216" lon="3.27885">
        <ele>44.84</ele>
        <time>2021-07-27T16:39:27Z</time>
      </trkpt>
      <trkpt lat="49.3821" lon="3.27872">
        <ele>44.36</ele>
        <time>2021-07-27T16:39:28Z</time>
      </trkpt>
      <trkpt lat="49.38204" lon="3.27857">
        <ele>44.84</ele>
        <time>2021-07-27T16:39:29Z</time>
      </trkpt>
      <trkpt lat="49.382" lon="3.2784">
        <ele>44.84</ele>
        <time>2021-07-27T16:39:30Z</time>
      </trkpt>
      <trkpt lat="49.382" lon="3.27629">
        <ele>46.76</ele>
        <time>2021-07-27T16:39:40Z</time>
      </trkpt>
      <trkpt lat="49.38209" lon="3.27221">
        <ele>48.68</ele>
        <time>2021-07-27T16:39:57Z</time>
      </trkpt>
      <trkpt lat="49.38237" lon="3.26964">
        <ele>48.2</ele>
        <time>2021-07-27T16:40:09Z</time>
      </trkpt>
      <trkpt lat="49.38302" lon="3.26555">
        <ele>48.2</ele>
        <time>2021-07-27T16:40:27Z</time>
      </trkpt>
      <trkpt lat="49.38351" lon="3.26245">
        <ele>47.72</ele>
        <time>2021-07-27T16:40:40Z</time>
      </trkpt>
      <trkpt lat="49.3842" lon="3.25814">
        <ele>48.68</ele>
        <time>2021-07-27T16:40:57Z</time>
      </trkpt>
      <trkpt lat="49.38472" lon="3.2549">
        <ele>50.13</ele>
        <time>2021-07-27T16:41:10Z</time>
      </trkpt>
      <trkpt lat="49.38563" lon="3.24913">
        <ele>50.61</ele>
        <time>2021-07-27T16:41:33Z</time>
      </trkpt>
      <trkpt lat="49.3863" lon="3.24502">
        <ele>50.61</ele>
        <time>2021-07-27T16:41:49Z</time>
      </trkpt>
      <trkpt lat="49.38703" lon="3.24027">
        <ele>49.65</ele>
        <time>2021-07-27T16:42:05Z</time>
      </trkpt>
      <trkpt lat="49.38787" lon="3.23501">
        <ele>47.72</ele>
        <time>2021-07-27T16:42:23Z</time>
      </trkpt>
      <trkpt lat="49.38869" lon="3.22984">
        <ele>46.76</ele>
        <time>2021-07-27T16:42:42Z</time>
      </trkpt>
      <trkpt lat="49.38926" lon="3.2262">
        <ele>46.76</ele>
        <time>2021-07-27T16:42:54Z</time>
      </trkpt>
      <trkpt lat="49.39028" lon="3.21995">
        <ele>56.37</ele>
        <time>2021-07-27T16:43:13Z</time>
      </trkpt>
      <trkpt lat="49.39116" lon="3.21415">
        <ele>66.95</ele>
        <time>2021-07-27T16:43:30Z</time>
      </trkpt>
      <trkpt lat="49.39183" lon="3.20979">
        <ele>57.82</ele>
        <time>2021-07-27T16:43:42Z</time>
      </trkpt>
      <trkpt lat="49.39241" lon="3.2059">
        <ele>53.01</ele>
        <time>2021-07-27T16:43:54Z</time>
      </trkpt>
      <trkpt lat="49.39313" lon="3.20068">
        <ele>59.26</ele>
        <time>2021-07-27T16:44:11Z</time>
      </trkpt>
      <trkpt lat="49.39388" lon="3.19562">
        <ele>57.82</ele>
        <time>2021-07-27T16:44:28Z</time>
      </trkpt>
      <trkpt lat="49.39482" lon="3.18906">
        <ele>48.68</ele>
        <time>2021-07-27T16:44:49Z</time>
      </trkpt>
      <trkpt lat="49.39539" lon="3.18507">
        <ele>48.68</ele>
        <time>2021-07-27T16:45:03Z</time>
      </trkpt>
      <trkpt lat="49.39602" lon="3.18061">
        <ele>55.41</ele>
        <time>2021-07-27T16:45:20Z</time>
      </trkpt>
      <trkpt lat="49.39665" lon="3.17618">
        <ele>57.34</ele>
        <time>2021-07-27T16:45:38Z</time>
      </trkpt>
      <trkpt lat="49.39735" lon="3.17138">
        <ele>53.49</ele>
        <time>2021-07-27T16:45:54Z</time>
      </trkpt>
      <trkpt lat="49.39805" lon="3.1664">
        <ele>56.86</ele>
        <time>2021-07-27T16:46:11Z</time>
      </trkpt>
      <trkpt lat="49.39828" lon="3.16313">
        <ele>53.49</ele>
        <time>2021-07-27T16:46:22Z</time>
      </trkpt>
      <trkpt lat="49.39807" lon="3.15897">
        <ele>53.49</ele>
        <time>2021-07-27T16:46:36Z</time>
      </trkpt>
      <trkpt lat="49.39785" lon="3.15433">
        <ele>47.24</ele>
        <time>2021-07-27T16:46:51Z</time>
      </trkpt>
      <trkpt lat="49.39762" lon="3.15008">
        <ele>42.92</ele>
        <time>2021-07-27T16:47:05Z</time>
      </trkpt>
      <trkpt lat="49.39738" lon="3.14529">
        <ele>39.07</ele>
        <time>2021-07-27T16:47:20Z</time>
      </trkpt>
      <trkpt lat="49.39714" lon="3.14089">
        <ele>39.55</ele>
        <time>2021-07-27T16:47:36Z</time>
      </trkpt>
      <trkpt lat="49.39683" lon="3.13484">
        <ele>39.55</ele>
        <time>2021-07-27T16:47:57Z</time>
      </trkpt>
      <trkpt lat="49.39658" lon="3.12939">
        <ele>37.63</ele>
        <time>2021-07-27T16:48:16Z</time>
      </trkpt>
      <trkpt lat="49.39644" lon="3.12547">
        <ele>37.15</ele>
        <time>2021-07-27T16:48:30Z</time>
      </trkpt>
      <trkpt lat="49.39631" lon="3.12158">
        <ele>38.11</ele>
        <time>2021-07-27T16:48:46Z</time>
      </trkpt>
      <trkpt lat="49.39619" lon="3.11802">
        <ele>39.55</ele>
        <time>2021-07-27T16:49:01Z</time>
      </trkpt>
      <trkpt lat="49.3961" lon="3.11543">
        <ele>39.55</ele>
        <time>2021-07-27T16:49:14Z</time>
      </trkpt>
      <trkpt lat="49.39608" lon="3.11476">
        <ele>39.07</ele>
        <time>2021-07-27T16:49:24Z</time>
      </trkpt>
      <trkpt lat="49.39603" lon="3.11397">
        <ele>39.55</ele>
        <time>2021-07-27T16:49:33Z</time>
      </trkpt>
      <trkpt lat="49.39598" lon="3.11233">
        <ele>38.59</ele>
        <time>2021-07-27T16:49:44Z</time>
      </trkpt>
      <trkpt lat="49.39588" lon="3.10977">
        <ele>38.11</ele>
        <time>2021-07-27T16:49:55Z</time>
      </trkpt>
      <trkpt lat="49.39582" lon="3.10698">
        <ele>37.63</ele>
        <time>2021-07-27T16:50:08Z</time>
      </trkpt>
      <trkpt lat="49.39582" lon="3.10274">
        <ele>40.51</ele>
        <time>2021-07-27T16:50:25Z</time>
      </trkpt>
      <trkpt lat="49.39582" lon="3.09827">
        <ele>38.59</ele>
        <time>2021-07-27T16:50:41Z</time>
      </trkpt>
      <trkpt lat="49.39582" lon="3.0944">
        <ele>36.19</ele>
        <time>2021-07-27T16:50:55Z</time>
      </trkpt>
      <trkpt lat="49.39583" lon="3.09079">
        <ele>35.71</ele>
        <time>2021-07-27T16:51:09Z</time>
      </trkpt>
      <trkpt lat="49.39598" lon="3.08624">
        <ele>35.71</ele>
        <time>2021-07-27T16:51:25Z</time>
      </trkpt>
      <trkpt lat="49.39621" lon="3.07997">
        <ele>35.71</ele>
        <time>2021-07-27T16:51:47Z</time>
      </trkpt>
      <trkpt lat="49.3963" lon="3.07728">
        <ele>35.23</ele>
        <time>2021-07-27T16:51:57Z</time>
      </trkpt>
      <trkpt lat="49.39634" lon="3.07616">
        <ele>35.71</ele>
        <time>2021-07-27T16:52:06Z</time>
      </trkpt>
      <trkpt lat="49.39642" lon="3.07445">
        <ele>36.67</ele>
        <time>2021-07-27T16:52:17Z</time>
      </trkpt>
      <trkpt lat="49.39649" lon="3.0721">
        <ele>40.03</ele>
        <time>2021-07-27T16:52:30Z</time>
      </trkpt>
      <trkpt lat="49.39658" lon="3.06989">
        <ele>41.47</ele>
        <time>2021-07-27T16:52:41Z</time>
      </trkpt>
      <trkpt lat="49.3966" lon="3.06972">
        <ele>41.47</ele>
        <time>2021-07-27T16:52:42Z</time>
      </trkpt>
      <trkpt lat="49.39662" lon="3.06955">
        <ele>41.47</ele>
        <time>2021-07-27T16:52:43Z</time>
      </trkpt>
      <trkpt lat="49.39713" lon="3.0677">
        <ele>38.59</ele>
        <time>2021-07-27T16:52:54Z</time>
      </trkpt>
      <trkpt lat="49.39724" lon="3.06732">
        <ele>37.15</ele>
        <time>2021-07-27T16:52:57Z</time>
      </trkpt>
      <trkpt lat="49.39726" lon="3.0672">
        <ele>37.63</ele>
        <time>2021-07-27T16:52:58Z</time>
      </trkpt>
      <trkpt lat="49.39726" lon="3.06707">
        <ele>37.63</ele>
        <time>2021-07-27T16:52:59Z</time>
      </trkpt>
      <trkpt lat="49.39726" lon="3.06694">
        <ele>37.63</ele>
        <time>2021-07-27T16:53:00Z</time>
      </trkpt>
      <trkpt lat="49.39725" lon="3.06671">
        <ele>38.11</ele>
        <time>2021-07-27T16:53:01Z</time>
      </trkpt>
      <trkpt lat="49.39725" lon="3.06671">
        <ele>38.11</ele>
        <time>2021-07-27T16:53:02Z</time>
      </trkpt>
      <trkpt lat="49.39722" lon="3.06659">
        <ele>38.11</ele>
        <time>2021-07-27T16:53:03Z</time>
      </trkpt>
      <trkpt lat="49.39719" lon="3.06646">
        <ele>39.07</ele>
        <time>2021-07-27T16:53:04Z</time>
      </trkpt>
      <trkpt lat="49.39699" lon="3.0658">
        <ele>41.95</ele>
        <time>2021-07-27T16:53:09Z</time>
      </trkpt>
      <trkpt lat="49.39696" lon="3.06564">
        <ele>42.92</ele>
        <time>2021-07-27T16:53:10Z</time>
      </trkpt>
      <trkpt lat="49.39694" lon="3.06549">
        <ele>42.92</ele>
        <time>2021-07-27T16:53:11Z</time>
      </trkpt>
      <trkpt lat="49.39695" lon="3.06377">
        <ele>40.03</ele>
        <time>2021-07-27T16:53:20Z</time>
      </trkpt>
      <trkpt lat="49.39716" lon="3.05991">
        <ele>40.51</ele>
        <time>2021-07-27T16:53:39Z</time>
      </trkpt>
      <trkpt lat="49.39734" lon="3.05709">
        <ele>42.44</ele>
        <time>2021-07-27T16:53:53Z</time>
      </trkpt>
      <trkpt lat="49.3976" lon="3.05334">
        <ele>43.4</ele>
        <time>2021-07-27T16:54:11Z</time>
      </trkpt>
      <trkpt lat="49.39781" lon="3.05001">
        <ele>43.88</ele>
        <time>2021-07-27T16:54:25Z</time>
      </trkpt>
      <trkpt lat="49.398" lon="3.04705">
        <ele>45.8</ele>
        <time>2021-07-27T16:54:39Z</time>
      </trkpt>
      <trkpt lat="49.39806" lon="3.04624">
        <ele>45.8</ele>
        <time>2021-07-27T16:54:47Z</time>
      </trkpt>
      <trkpt lat="49.39806" lon="3.04617">
        <ele>45.8</ele>
        <time>2021-07-27T16:54:57Z</time>
      </trkpt>
      <trkpt lat="49.39808" lon="3.0458">
        <ele>45.8</ele>
        <time>2021-07-27T16:55:14Z</time>
      </trkpt>
      <trkpt lat="49.39816" lon="3.04477">
        <ele>45.32</ele>
        <time>2021-07-27T16:55:23Z</time>
      </trkpt>
      <trkpt lat="49.39827" lon="3.04311">
        <ele>43.88</ele>
        <time>2021-07-27T16:55:32Z</time>
      </trkpt>
      <trkpt lat="49.39847" lon="3.04008">
        <ele>40.51</ele>
        <time>2021-07-27T16:55:44Z</time>
      </trkpt>
      <trkpt lat="49.39886" lon="3.03434">
        <ele>38.11</ele>
        <time>2021-07-27T16:56:04Z</time>
      </trkpt>
      <trkpt lat="49.39895" lon="3.03281">
        <ele>37.15</ele>
        <time>2021-07-27T16:56:11Z</time>
      </trkpt>
      <trkpt lat="49.39899" lon="3.03226">
        <ele>37.15</ele>
        <time>2021-07-27T16:56:17Z</time>
      </trkpt>
      <trkpt lat="49.39901" lon="3.03205">
        <ele>37.15</ele>
        <time>2021-07-27T16:56:28Z</time>
      </trkpt>
      <trkpt lat="49.39906" lon="3.03117">
        <ele>36.67</ele>
        <time>2021-07-27T16:56:37Z</time>
      </trkpt>
      <trkpt lat="49.39911" lon="3.02943">
        <ele>37.15</ele>
        <time>2021-07-27T16:56:48Z</time>
      </trkpt>
      <trkpt lat="49.39945" lon="3.027">
        <ele>36.19</ele>
        <time>2021-07-27T16:57:03Z</time>
      </trkpt>
      <trkpt lat="49.39983" lon="3.02459">
        <ele>33.78</ele>
        <time>2021-07-27T16:57:16Z</time>
      </trkpt>
      <trkpt lat="49.4005" lon="3.02143">
        <ele>36.19</ele>
        <time>2021-07-27T16:57:31Z</time>
      </trkpt>
      <trkpt lat="49.4012" lon="3.0183">
        <ele>36.19</ele>
        <time>2021-07-27T16:57:46Z</time>
      </trkpt>
      <trkpt lat="49.4021" lon="3.01427">
        <ele>37.15</ele>
        <time>2021-07-27T16:58:05Z</time>
      </trkpt>
      <trkpt lat="49.40269" lon="3.01156">
        <ele>36.67</ele>
        <time>2021-07-27T16:58:19Z</time>
      </trkpt>
      <trkpt lat="49.40355" lon="3.00776">
        <ele>32.82</ele>
        <time>2021-07-27T16:58:40Z</time>
      </trkpt>
      <trkpt lat="49.40385" lon="3.00638">
        <ele>32.82</ele>
        <time>2021-07-27T16:58:51Z</time>
      </trkpt>
      <trkpt lat="49.40409" lon="3.00527">
        <ele>32.34</ele>
        <time>2021-07-27T16:59:01Z</time>
      </trkpt>
      <trkpt lat="49.40409" lon="3.00522">
        <ele>32.34</ele>
        <time>2021-07-27T16:59:11Z</time>
      </trkpt>
      <trkpt lat="49.40417" lon="3.00491">
        <ele>32.82</ele>
        <time>2021-07-27T16:59:35Z</time>
      </trkpt>
      <trkpt lat="49.40437" lon="3.00393">
        <ele>32.34</ele>
        <time>2021-07-27T16:59:43Z</time>
      </trkpt>
      <trkpt lat="49.40439" lon="3.00378">
        <ele>31.86</ele>
        <time>2021-07-27T16:59:44Z</time>
      </trkpt>
      <trkpt lat="49.40442" lon="3.00362">
        <ele>31.86</ele>
        <time>2021-07-27T16:59:45Z</time>
      </trkpt>
      <trkpt lat="49.40441" lon="3.00345">
        <ele>32.82</ele>
        <time>2021-07-27T16:59:46Z</time>
      </trkpt>
      <trkpt lat="49.40439" lon="3.00328">
        <ele>33.78</ele>
        <time>2021-07-27T16:59:47Z</time>
      </trkpt>
      <trkpt lat="49.40437" lon="3.0031">
        <ele>33.78</ele>
        <time>2021-07-27T16:59:48Z</time>
      </trkpt>
      <trkpt lat="49.40398" lon="3.00117">
        <ele>35.23</ele>
        <time>2021-07-27T17:00:01Z</time>
      </trkpt>
      <trkpt lat="49.4034" lon="2.99848">
        <ele>35.71</ele>
        <time>2021-07-27T17:00:21Z</time>
      </trkpt>
      <trkpt lat="49.40287" lon="2.99608">
        <ele>36.19</ele>
        <time>2021-07-27T17:00:38Z</time>
      </trkpt>
      <trkpt lat="49.40255" lon="2.99456">
        <ele>36.19</ele>
        <time>2021-07-27T17:00:49Z</time>
      </trkpt>
      <trkpt lat="49.40243" lon="2.99379">
        <ele>36.67</ele>
        <time>2021-07-27T17:00:58Z</time>
      </trkpt>
      <trkpt lat="49.40242" lon="2.99373">
        <ele>36.67</ele>
        <time>2021-07-27T17:00:59Z</time>
      </trkpt>
      <trkpt lat="49.4024" lon="2.99366">
        <ele>36.67</ele>
        <time>2021-07-27T17:01:00Z</time>
      </trkpt>
      <trkpt lat="49.40244" lon="2.99336">
        <ele>36.67</ele>
        <time>2021-07-27T17:01:03Z</time>
      </trkpt>
      <trkpt lat="49.40244" lon="2.99336">
        <ele>36.67</ele>
        <time>2021-07-27T17:01:04Z</time>
      </trkpt>
      <trkpt lat="49.40243" lon="2.9933">
        <ele>36.67</ele>
        <time>2021-07-27T17:01:05Z</time>
      </trkpt>
      <trkpt lat="49.40243" lon="2.99328">
        <ele>36.19</ele>
        <time>2021-07-27T17:01:06Z</time>
      </trkpt>
      <trkpt lat="49.40232" lon="2.99323">
        <ele>36.67</ele>
        <time>2021-07-27T17:01:07Z</time>
      </trkpt>
      <trkpt lat="49.40229" lon="2.99316">
        <ele>36.67</ele>
        <time>2021-07-27T17:01:08Z</time>
      </trkpt>
      <trkpt lat="49.40227" lon="2.99308">
        <ele>36.67</ele>
        <time>2021-07-27T17:01:09Z</time>
      </trkpt>
      <trkpt lat="49.4022" lon="2.99288">
        <ele>36.67</ele>
        <time>2021-07-27T17:01:10Z</time>
      </trkpt>
      <trkpt lat="49.40195" lon="2.99165">
        <ele>40.51</ele>
        <time>2021-07-27T17:01:18Z</time>
      </trkpt>
      <trkpt lat="49.40159" lon="2.98954">
        <ele>41.95</ele>
        <time>2021-07-27T17:01:29Z</time>
      </trkpt>
      <trkpt lat="49.40167" lon="2.98737">
        <ele>41.95</ele>
        <time>2021-07-27T17:01:41Z</time>
      </trkpt>
      <trkpt lat="49.40179" lon="2.98501">
        <ele>37.15</ele>
        <time>2021-07-27T17:01:52Z</time>
      </trkpt>
      <trkpt lat="49.40192" lon="2.98218">
        <ele>36.67</ele>
        <time>2021-07-27T17:02:06Z</time>
      </trkpt>
      <trkpt lat="49.40209" lon="2.97846">
        <ele>38.11</ele>
        <time>2021-07-27T17:02:25Z</time>
      </trkpt>
      <trkpt lat="49.40229" lon="2.97429">
        <ele>38.11</ele>
        <time>2021-07-27T17:02:45Z</time>
      </trkpt>
      <trkpt lat="49.40246" lon="2.97068">
        <ele>36.67</ele>
        <time>2021-07-27T17:03:02Z</time>
      </trkpt>
      <trkpt lat="49.40262" lon="2.96711">
        <ele>37.15</ele>
        <time>2021-07-27T17:03:21Z</time>
      </trkpt>
      <trkpt lat="49.40238" lon="2.9652">
        <ele>39.07</ele>
        <time>2021-07-27T17:03:32Z</time>
      </trkpt>
      <trkpt lat="49.4022" lon="2.96394">
        <ele>37.63</ele>
        <time>2021-07-27T17:03:39Z</time>
      </trkpt>
      <trkpt lat="49.4022" lon="2.96352">
        <ele>37.63</ele>
        <time>2021-07-27T17:03:40Z</time>
      </trkpt>
      <trkpt lat="49.4022" lon="2.96352">
        <ele>37.63</ele>
        <time>2021-07-27T17:03:41Z</time>
      </trkpt>
      <trkpt lat="49.40224" lon="2.96335">
        <ele>37.15</ele>
        <time>2021-07-27T17:03:42Z</time>
      </trkpt>
      <trkpt lat="49.40228" lon="2.96315">
        <ele>37.15</ele>
        <time>2021-07-27T17:03:43Z</time>
      </trkpt>
      <trkpt lat="49.40293" lon="2.9607">
        <ele>37.15</ele>
        <time>2021-07-27T17:03:54Z</time>
      </trkpt>
      <trkpt lat="49.40399" lon="2.9567">
        <ele>35.23</ele>
        <time>2021-07-27T17:04:09Z</time>
      </trkpt>
      <trkpt lat="49.40542" lon="2.95137">
        <ele>33.3</ele>
        <time>2021-07-27T17:04:28Z</time>
      </trkpt>
      <trkpt lat="49.40671" lon="2.94657">
        <ele>28.98</ele>
        <time>2021-07-27T17:04:45Z</time>
      </trkpt>
      <trkpt lat="49.40792" lon="2.94206">
        <ele>27.53</ele>
        <time>2021-07-27T17:05:01Z</time>
      </trkpt>
      <trkpt lat="49.40948" lon="2.93625">
        <ele>27.53</ele>
        <time>2021-07-27T17:05:22Z</time>
      </trkpt>
      <trkpt lat="49.4106" lon="2.93208">
        <ele>32.34</ele>
        <time>2021-07-27T17:05:38Z</time>
      </trkpt>
      <trkpt lat="49.41152" lon="2.92862">
        <ele>32.34</ele>
        <time>2021-07-27T17:05:52Z</time>
      </trkpt>
      <trkpt lat="49.41265" lon="2.92459">
        <ele>28.02</ele>
        <time>2021-07-27T17:06:08Z</time>
      </trkpt>
      <trkpt lat="49.41328" lon="2.92257">
        <ele>28.02</ele>
        <time>2021-07-27T17:06:19Z</time>
      </trkpt>
      <trkpt lat="49.41334" lon="2.9224">
        <ele>28.02</ele>
        <time>2021-07-27T17:06:20Z</time>
      </trkpt>
      <trkpt lat="49.41342" lon="2.92227">
        <ele>28.02</ele>
        <time>2021-07-27T17:06:21Z</time>
      </trkpt>
      <trkpt lat="49.41349" lon="2.92215">
        <ele>29.46</ele>
        <time>2021-07-27T17:06:22Z</time>
      </trkpt>
      <trkpt lat="49.41356" lon="2.92203">
        <ele>29.46</ele>
        <time>2021-07-27T17:06:23Z</time>
      </trkpt>
      <trkpt lat="49.41375" lon="2.92187">
        <ele>28.98</ele>
        <time>2021-07-27T17:06:25Z</time>
      </trkpt>
      <trkpt lat="49.41382" lon="2.92175">
        <ele>28.98</ele>
        <time>2021-07-27T17:06:26Z</time>
      </trkpt>
      <trkpt lat="49.41393" lon="2.92149">
        <ele>29.46</ele>
        <time>2021-07-27T17:06:27Z</time>
      </trkpt>
      <trkpt lat="49.41393" lon="2.92149">
        <ele>28.98</ele>
        <time>2021-07-27T17:06:28Z</time>
      </trkpt>
      <trkpt lat="49.41396" lon="2.92133">
        <ele>28.5</ele>
        <time>2021-07-27T17:06:29Z</time>
      </trkpt>
      <trkpt lat="49.41436" lon="2.91905">
        <ele>28.98</ele>
        <time>2021-07-27T17:06:41Z</time>
      </trkpt>
      <trkpt lat="49.41503" lon="2.91688">
        <ele>29.46</ele>
        <time>2021-07-27T17:06:53Z</time>
      </trkpt>
      <trkpt lat="49.41587" lon="2.91422">
        <ele>28.02</ele>
        <time>2021-07-27T17:07:04Z</time>
      </trkpt>
      <trkpt lat="49.41706" lon="2.91042">
        <ele>28.02</ele>
        <time>2021-07-27T17:07:17Z</time>
      </trkpt>
      <trkpt lat="49.41771" lon="2.90868">
        <ele>31.38</ele>
        <time>2021-07-27T17:07:27Z</time>
      </trkpt>
      <trkpt lat="49.41851" lon="2.90779">
        <ele>31.38</ele>
        <time>2021-07-27T17:07:34Z</time>
      </trkpt>
      <trkpt lat="49.41994" lon="2.90651">
        <ele>35.71</ele>
        <time>2021-07-27T17:07:44Z</time>
      </trkpt>
      <trkpt lat="49.42088" lon="2.90448">
        <ele>34.74</ele>
        <time>2021-07-27T17:07:53Z</time>
      </trkpt>
      <trkpt lat="49.4217" lon="2.90158">
        <ele>32.82</ele>
        <time>2021-07-27T17:08:03Z</time>
      </trkpt>
      <trkpt lat="49.42169" lon="2.89956">
        <ele>33.78</ele>
        <time>2021-07-27T17:08:09Z</time>
      </trkpt>
      <trkpt lat="49.42149" lon="2.89691">
        <ele>33.78</ele>
        <time>2021-07-27T17:08:17Z</time>
      </trkpt>
      <trkpt lat="49.42189" lon="2.89503">
        <ele>34.74</ele>
        <time>2021-07-27T17:08:23Z</time>
      </trkpt>
      <trkpt lat="49.42368" lon="2.88924">
        <ele>33.3</ele>
        <time>2021-07-27T17:08:43Z</time>
      </trkpt>
      <trkpt lat="49.42509" lon="2.88472">
        <ele>31.38</ele>
        <time>2021-07-27T17:08:59Z</time>
      </trkpt>
      <trkpt lat="49.4259" lon="2.88204">
        <ele>30.42</ele>
        <time>2021-07-27T17:09:10Z</time>
      </trkpt>
      <trkpt lat="49.42601" lon="2.8816">
        <ele>29.46</ele>
        <time>2021-07-27T17:09:13Z</time>
      </trkpt>
      <trkpt lat="49.42604" lon="2.88149">
        <ele>29.46</ele>
        <time>2021-07-27T17:09:14Z</time>
      </trkpt>
      <trkpt lat="49.42606" lon="2.88141">
        <ele>29.46</ele>
        <time>2021-07-27T17:09:15Z</time>
      </trkpt>
      <trkpt lat="49.42615" lon="2.88151">
        <ele>28.5</ele>
        <time>2021-07-27T17:09:16Z</time>
      </trkpt>
      <trkpt lat="49.42619" lon="2.88154">
        <ele>28.02</ele>
        <time>2021-07-27T17:09:17Z</time>
      </trkpt>
      <trkpt lat="49.42624" lon="2.88158">
        <ele>27.53</ele>
        <time>2021-07-27T17:09:18Z</time>
      </trkpt>
      <trkpt lat="49.42629" lon="2.88162">
        <ele>27.05</ele>
        <time>2021-07-27T17:09:19Z</time>
      </trkpt>
      <trkpt lat="49.4263" lon="2.88171">
        <ele>26.57</ele>
        <time>2021-07-27T17:09:20Z</time>
      </trkpt>
      <trkpt lat="49.42631" lon="2.88182">
        <ele>25.61</ele>
        <time>2021-07-27T17:09:21Z</time>
      </trkpt>
      <trkpt lat="49.4265" lon="2.88329">
        <ele>18.88</ele>
        <time>2021-07-27T17:09:30Z</time>
      </trkpt>
      <trkpt lat="49.42679" lon="2.88574">
        <ele>16.48</ele>
        <time>2021-07-27T17:09:41Z</time>
      </trkpt>
      <trkpt lat="49.42717" lon="2.88887">
        <ele>23.69</ele>
        <time>2021-07-27T17:09:54Z</time>
      </trkpt>
      <trkpt lat="49.42753" lon="2.89176">
        <ele>22.25</ele>
        <time>2021-07-27T17:10:05Z</time>
      </trkpt>
      <trkpt lat="49.42792" lon="2.89512">
        <ele>19.36</ele>
        <time>2021-07-27T17:10:18Z</time>
      </trkpt>
      <trkpt lat="49.42843" lon="2.89936">
        <ele>28.02</ele>
        <time>2021-07-27T17:10:34Z</time>
      </trkpt>
      <trkpt lat="49.42879" lon="2.90226">
        <ele>29.94</ele>
        <time>2021-07-27T17:10:45Z</time>
      </trkpt>
      <trkpt lat="49.42908" lon="2.9047">
        <ele>34.74</ele>
        <time>2021-07-27T17:10:55Z</time>
      </trkpt>
      <trkpt lat="49.42923" lon="2.90569">
        <ele>40.99</ele>
        <time>2021-07-27T17:11:01Z</time>
      </trkpt>
      <trkpt lat="49.42931" lon="2.90589">
        <ele>45.32</ele>
        <time>2021-07-27T17:11:10Z</time>
      </trkpt>
      <trkpt lat="49.42933" lon="2.90592">
        <ele>48.2</ele>
        <time>2021-07-27T17:11:17Z</time>
      </trkpt>
      <trkpt lat="49.42921" lon="2.90608">
        <ele>48.2</ele>
        <time>2021-07-27T17:11:18Z</time>
      </trkpt>
      <trkpt lat="49.42919" lon="2.90609">
        <ele>47.72</ele>
        <time>2021-07-27T17:11:19Z</time>
      </trkpt>
      <trkpt lat="49.42918" lon="2.9061">
        <ele>47.24</ele>
        <time>2021-07-27T17:11:20Z</time>
      </trkpt>
      <trkpt lat="49.42917" lon="2.90611">
        <ele>46.76</ele>
        <time>2021-07-27T17:11:21Z</time>
      </trkpt>
      <trkpt lat="49.42916" lon="2.90612">
        <ele>44.84</ele>
        <time>2021-07-27T17:11:22Z</time>
      </trkpt>
      <trkpt lat="49.42905" lon="2.90591">
        <ele>40.51</ele>
        <time>2021-07-27T17:11:29Z</time>
      </trkpt>
      <trkpt lat="49.42923" lon="2.90569">
        <ele>39.07</ele>
        <time>2021-07-27T17:11:34Z</time>
      </trkpt>
      <trkpt lat="49.42924" lon="2.90572">
        <ele>38.59</ele>
        <time>2021-07-27T17:11:35Z</time>
      </trkpt>
      <trkpt lat="49.42925" lon="2.90575">
        <ele>38.11</ele>
        <time>2021-07-27T17:11:36Z</time>
      </trkpt>
      <trkpt lat="49.42925" lon="2.90575">
        <ele>38.59</ele>
        <time>2021-07-27T17:11:42Z</time>
      </trkpt>
      <trkpt lat="49.42925" lon="2.90575">
        <ele>38.59</ele>
        <time>2021-07-27T17:11:43Z</time>
      </trkpt>
      <trkpt lat="49.42902" lon="2.90644">
        <ele>38.11</ele>
        <time>2021-07-27T17:11:52Z</time>
      </trkpt>
      <trkpt lat="49.42872" lon="2.90734">
        <ele>37.15</ele>
        <time>2021-07-27T17:12:05Z</time>
      </trkpt>
      <trkpt lat="49.42869" lon="2.90745">
        <ele>35.23</ele>
        <time>2021-07-27T17:12:14Z</time>
      </trkpt>
      <trkpt lat="49.42869" lon="2.90745">
        <ele>35.23</ele>
        <time>2021-07-27T17:12:36Z</time>
      </trkpt>
      <trkpt lat="49.42869" lon="2.90745">
        <ele>35.23</ele>
        <time>2021-07-27T17:12:37Z</time>
      </trkpt>
      <trkpt lat="49.42869" lon="2.90745">
        <ele>35.23</ele>
        <time>2021-07-27T17:12:38Z</time>
      </trkpt>
      <trkpt lat="49.42871" lon="2.90745">
        <ele>35.23</ele>
        <time>2021-07-27T17:12:39Z</time>
      </trkpt>
      <trkpt lat="49.42873" lon="2.90746">
        <ele>35.23</ele>
        <time>2021-07-27T17:12:40Z</time>
      </trkpt>
      <trkpt lat="49.42876" lon="2.90746">
        <ele>35.71</ele>
        <time>2021-07-27T17:12:41Z</time>
      </trkpt>
      <trkpt lat="49.42879" lon="2.90746">
        <ele>35.71</ele>
        <time>2021-07-27T17:12:42Z</time>
      </trkpt>
      <trkpt lat="49.42924" lon="2.90753">
        <ele>35.71</ele>
        <time>2021-07-27T17:12:55Z</time>
      </trkpt>
      <trkpt lat="49.4294" lon="2.90734">
        <ele>34.26</ele>
        <time>2021-07-27T17:13:03Z</time>
      </trkpt>
      <trkpt lat="49.42939" lon="2.90729">
        <ele>34.26</ele>
        <time>2021-07-27T17:13:04Z</time>
      </trkpt>
      <trkpt lat="49.42939" lon="2.90716">
        <ele>34.26</ele>
        <time>2021-07-27T17:13:06Z</time>
      </trkpt>
      <trkpt lat="49.42937" lon="2.90681">
        <ele>32.34</ele>
        <time>2021-07-27T17:13:11Z</time>
      </trkpt>
      <trkpt lat="49.42934" lon="2.90611">
        <ele>24.65</ele>
        <time>2021-07-27T17:13:23Z</time>
      </trkpt>
      <trkpt lat="49.42925" lon="2.90574">
        <ele>31.86</ele>
        <time>2021-07-27T17:13:39Z</time>
      </trkpt>
      <trkpt lat="49.42922" lon="2.90563">
        <ele>34.26</ele>
        <time>2021-07-27T17:13:53Z</time>
      </trkpt>
      <trkpt lat="49.4292" lon="2.90551">
        <ele>34.26</ele>
        <time>2021-07-27T17:13:54Z</time>
      </trkpt>
      <trkpt lat="49.4292" lon="2.90548">
        <ele>34.26</ele>
        <time>2021-07-27T17:13:55Z</time>
      </trkpt>
      <trkpt lat="49.42918" lon="2.90536">
        <ele>34.26</ele>
        <time>2021-07-27T17:13:56Z</time>
      </trkpt>
      <trkpt lat="49.42918" lon="2.90536">
        <ele>34.26</ele>
        <time>2021-07-27T17:13:57Z</time>
      </trkpt>
      <trkpt lat="49.42917" lon="2.90528">
        <ele>33.78</ele>
        <time>2021-07-27T17:13:58Z</time>
      </trkpt>
      <trkpt lat="49.42915" lon="2.90519">
        <ele>33.78</ele>
        <time>2021-07-27T17:13:59Z</time>
      </trkpt>
      <trkpt lat="49.429" lon="2.90406">
        <ele>32.82</ele>
        <time>2021-07-27T17:14:07Z</time>
      </trkpt>
      <trkpt lat="49.42876" lon="2.90202">
        <ele>31.38</ele>
        <time>2021-07-27T17:14:17Z</time>
      </trkpt>
      <trkpt lat="49.42837" lon="2.89889">
        <ele>32.82</ele>
        <time>2021-07-27T17:14:29Z</time>
      </trkpt>
      <trkpt lat="49.42785" lon="2.89447">
        <ele>32.82</ele>
        <time>2021-07-27T17:14:46Z</time>
      </trkpt>
      <trkpt lat="49.4273" lon="2.88991">
        <ele>32.34</ele>
        <time>2021-07-27T17:15:01Z</time>
      </trkpt>
      <trkpt lat="49.42681" lon="2.88584">
        <ele>35.71</ele>
        <time>2021-07-27T17:15:16Z</time>
      </trkpt>
      <trkpt lat="49.42634" lon="2.88204">
        <ele>34.26</ele>
        <time>2021-07-27T17:15:29Z</time>
      </trkpt>
      <trkpt lat="49.42625" lon="2.88133">
        <ele>35.71</ele>
        <time>2021-07-27T17:15:34Z</time>
      </trkpt>
      <trkpt lat="49.42622" lon="2.88124">
        <ele>35.71</ele>
        <time>2021-07-27T17:15:35Z</time>
      </trkpt>
      <trkpt lat="49.42618" lon="2.88117">
        <ele>36.19</ele>
        <time>2021-07-27T17:15:36Z</time>
      </trkpt>
      <trkpt lat="49.42616" lon="2.88088">
        <ele>36.67</ele>
        <time>2021-07-27T17:15:40Z</time>
      </trkpt>
      <trkpt lat="49.42615" lon="2.88081">
        <ele>36.67</ele>
        <time>2021-07-27T17:15:41Z</time>
      </trkpt>
      <trkpt lat="49.4261" lon="2.88002">
        <ele>37.15</ele>
        <time>2021-07-27T17:15:48Z</time>
      </trkpt>
      <trkpt lat="49.42589" lon="2.8782">
        <ele>35.23</ele>
        <time>2021-07-27T17:15:57Z</time>
      </trkpt>
      <trkpt lat="49.42573" lon="2.87697">
        <ele>34.74</ele>
        <time>2021-07-27T17:16:04Z</time>
      </trkpt>
      <trkpt lat="49.42573" lon="2.87687">
        <ele>34.26</ele>
        <time>2021-07-27T17:16:05Z</time>
      </trkpt>
      <trkpt lat="49.42573" lon="2.87677">
        <ele>33.78</ele>
        <time>2021-07-27T17:16:06Z</time>
      </trkpt>
      <trkpt lat="49.42573" lon="2.87672">
        <ele>33.78</ele>
        <time>2021-07-27T17:16:07Z</time>
      </trkpt>
      <trkpt lat="49.42588" lon="2.87651">
        <ele>33.3</ele>
        <time>2021-07-27T17:16:08Z</time>
      </trkpt>
      <trkpt lat="49.42588" lon="2.87651">
        <ele>33.78</ele>
        <time>2021-07-27T17:16:09Z</time>
      </trkpt>
      <trkpt lat="49.42591" lon="2.8764">
        <ele>33.78</ele>
        <time>2021-07-27T17:16:10Z</time>
      </trkpt>
      <trkpt lat="49.42591" lon="2.87625">
        <ele>33.3</ele>
        <time>2021-07-27T17:16:11Z</time>
      </trkpt>
      <trkpt lat="49.42588" lon="2.87615">
        <ele>33.3</ele>
        <time>2021-07-27T17:16:12Z</time>
      </trkpt>
      <trkpt lat="49.42583" lon="2.87608">
        <ele>33.3</ele>
        <time>2021-07-27T17:16:13Z</time>
      </trkpt>
      <trkpt lat="49.42577" lon="2.87601">
        <ele>33.78</ele>
        <time>2021-07-27T17:16:14Z</time>
      </trkpt>
      <trkpt lat="49.42572" lon="2.87599">
        <ele>33.3</ele>
        <time>2021-07-27T17:16:15Z</time>
      </trkpt>
      <trkpt lat="49.42565" lon="2.87599">
        <ele>33.3</ele>
        <time>2021-07-27T17:16:16Z</time>
      </trkpt>
      <trkpt lat="49.42559" lon="2.87604">
        <ele>33.3</ele>
        <time>2021-07-27T17:16:17Z</time>
      </trkpt>
      <trkpt lat="49.42552" lon="2.8761">
        <ele>33.3</ele>
        <time>2021-07-27T17:16:18Z</time>
      </trkpt>
      <trkpt lat="49.4255" lon="2.87612">
        <ele>32.82</ele>
        <time>2021-07-27T17:16:19Z</time>
      </trkpt>
      <trkpt lat="49.42532" lon="2.87628">
        <ele>32.82</ele>
        <time>2021-07-27T17:16:20Z</time>
      </trkpt>
      <trkpt lat="49.42522" lon="2.87627">
        <ele>33.3</ele>
        <time>2021-07-27T17:16:21Z</time>
      </trkpt>
      <trkpt lat="49.42404" lon="2.87609">
        <ele>34.26</ele>
        <time>2021-07-27T17:16:30Z</time>
      </trkpt>
      <trkpt lat="49.42183" lon="2.87576">
        <ele>35.71</ele>
        <time>2021-07-27T17:16:44Z</time>
      </trkpt>
      <trkpt lat="49.41958" lon="2.87541">
        <ele>35.71</ele>
        <time>2021-07-27T17:16:57Z</time>
      </trkpt>
      <trkpt lat="49.41723" lon="2.87505">
        <ele>38.11</ele>
        <time>2021-07-27T17:17:11Z</time>
      </trkpt>
      <trkpt lat="49.41611" lon="2.87487">
        <ele>38.11</ele>
        <time>2021-07-27T17:17:20Z</time>
      </trkpt>
      <trkpt lat="49.41588" lon="2.87483">
        <ele>39.07</ele>
        <time>2021-07-27T17:17:28Z</time>
      </trkpt>
      <trkpt lat="49.41585" lon="2.87483">
        <ele>39.07</ele>
        <time>2021-07-27T17:17:29Z</time>
      </trkpt>
      <trkpt lat="49.41575" lon="2.87481">
        <ele>37.63</ele>
        <time>2021-07-27T17:17:31Z</time>
      </trkpt>
      <trkpt lat="49.41569" lon="2.8748">
        <ele>37.15</ele>
        <time>2021-07-27T17:17:32Z</time>
      </trkpt>
      <trkpt lat="49.41506" lon="2.87471">
        <ele>35.23</ele>
        <time>2021-07-27T17:17:39Z</time>
      </trkpt>
      <trkpt lat="49.41365" lon="2.8745">
        <ele>30.9</ele>
        <time>2021-07-27T17:17:49Z</time>
      </trkpt>
      <trkpt lat="49.41173" lon="2.87421">
        <ele>32.34</ele>
        <time>2021-07-27T17:18:00Z</time>
      </trkpt>
      <trkpt lat="49.4087" lon="2.87377">
        <ele>37.63</ele>
        <time>2021-07-27T17:18:15Z</time>
      </trkpt>
      <trkpt lat="49.40579" lon="2.87334">
        <ele>38.11</ele>
        <time>2021-07-27T17:18:31Z</time>
      </trkpt>
      <trkpt lat="49.40303" lon="2.87305">
        <ele>45.32</ele>
        <time>2021-07-27T17:18:45Z</time>
      </trkpt>
      <trkpt lat="49.39926" lon="2.87299">
        <ele>46.76</ele>
        <time>2021-07-27T17:19:05Z</time>
      </trkpt>
      <trkpt lat="49.39845" lon="2.87297">
        <ele>48.2</ele>
        <time>2021-07-27T17:19:10Z</time>
      </trkpt>
      <trkpt lat="49.39827" lon="2.87293">
        <ele>49.16</ele>
        <time>2021-07-27T17:19:12Z</time>
      </trkpt>
      <trkpt lat="49.39821" lon="2.87292">
        <ele>50.13</ele>
        <time>2021-07-27T17:19:13Z</time>
      </trkpt>
      <trkpt lat="49.39816" lon="2.8729">
        <ele>50.61</ele>
        <time>2021-07-27T17:19:14Z</time>
      </trkpt>
      <trkpt lat="49.39816" lon="2.8729">
        <ele>51.09</ele>
        <time>2021-07-27T17:19:15Z</time>
      </trkpt>
      <trkpt lat="49.39816" lon="2.87265">
        <ele>51.57</ele>
        <time>2021-07-27T17:19:16Z</time>
      </trkpt>
      <trkpt lat="49.39814" lon="2.8726">
        <ele>51.57</ele>
        <time>2021-07-27T17:19:17Z</time>
      </trkpt>
      <trkpt lat="49.39802" lon="2.87252">
        <ele>52.53</ele>
        <time>2021-07-27T17:19:18Z</time>
      </trkpt>
      <trkpt lat="49.39797" lon="2.87239">
        <ele>52.53</ele>
        <time>2021-07-27T17:19:19Z</time>
      </trkpt>
      <trkpt lat="49.39799" lon="2.87226">
        <ele>52.53</ele>
        <time>2021-07-27T17:19:20Z</time>
      </trkpt>
      <trkpt lat="49.39801" lon="2.87212">
        <ele>52.05</ele>
        <time>2021-07-27T17:19:21Z</time>
      </trkpt>
      <trkpt lat="49.39803" lon="2.87195">
        <ele>51.09</ele>
        <time>2021-07-27T17:19:22Z</time>
      </trkpt>
      <trkpt lat="49.39806" lon="2.8718">
        <ele>51.09</ele>
        <time>2021-07-27T17:19:23Z</time>
      </trkpt>
      <trkpt lat="49.39841" lon="2.87012">
        <ele>50.13</ele>
        <time>2021-07-27T17:19:32Z</time>
      </trkpt>
      <trkpt lat="49.39898" lon="2.86764">
        <ele>51.57</ele>
        <time>2021-07-27T17:19:42Z</time>
      </trkpt>
      <trkpt lat="49.40007" lon="2.86283">
        <ele>54.45</ele>
        <time>2021-07-27T17:19:58Z</time>
      </trkpt>
      <trkpt lat="49.40148" lon="2.8565">
        <ele>52.05</ele>
        <time>2021-07-27T17:20:20Z</time>
      </trkpt>
      <trkpt lat="49.40268" lon="2.85114">
        <ele>53.49</ele>
        <time>2021-07-27T17:20:38Z</time>
      </trkpt>
      <trkpt lat="49.40371" lon="2.84648">
        <ele>56.86</ele>
        <time>2021-07-27T17:20:55Z</time>
      </trkpt>
      <trkpt lat="49.40437" lon="2.84358">
        <ele>53.49</ele>
        <time>2021-07-27T17:21:06Z</time>
      </trkpt>
      <trkpt lat="49.40499" lon="2.84078">
        <ele>53.49</ele>
        <time>2021-07-27T17:21:18Z</time>
      </trkpt>
      <trkpt lat="49.40539" lon="2.83899">
        <ele>51.57</ele>
        <time>2021-07-27T17:21:28Z</time>
      </trkpt>
      <trkpt lat="49.40552" lon="2.83832">
        <ele>52.53</ele>
        <time>2021-07-27T17:21:33Z</time>
      </trkpt>
      <trkpt lat="49.40554" lon="2.83823">
        <ele>53.01</ele>
        <time>2021-07-27T17:21:34Z</time>
      </trkpt>
      <trkpt lat="49.40566" lon="2.8381">
        <ele>53.01</ele>
        <time>2021-07-27T17:21:35Z</time>
      </trkpt>
      <trkpt lat="49.4063" lon="2.83738">
        <ele>53.49</ele>
        <time>2021-07-27T17:21:46Z</time>
      </trkpt>
      <trkpt lat="49.40791" lon="2.83598">
        <ele>52.53</ele>
        <time>2021-07-27T17:22:04Z</time>
      </trkpt>
      <trkpt lat="49.40884" lon="2.83517">
        <ele>53.49</ele>
        <time>2021-07-27T17:22:17Z</time>
      </trkpt>
      <trkpt lat="49.4094" lon="2.83467">
        <ele>52.53</ele>
        <time>2021-07-27T17:22:26Z</time>
      </trkpt>
      <trkpt lat="49.40946" lon="2.83461">
        <ele>53.01</ele>
        <time>2021-07-27T17:22:37Z</time>
      </trkpt>
      <trkpt lat="49.40966" lon="2.8344">
        <ele>52.53</ele>
        <time>2021-07-27T17:22:54Z</time>
      </trkpt>
      <trkpt lat="49.41027" lon="2.83369">
        <ele>49.65</ele>
        <time>2021-07-27T17:23:04Z</time>
      </trkpt>
      <trkpt lat="49.41097" lon="2.83285">
        <ele>50.13</ele>
        <time>2021-07-27T17:23:14Z</time>
      </trkpt>
      <trkpt lat="49.41137" lon="2.83239">
        <ele>50.61</ele>
        <time>2021-07-27T17:23:25Z</time>
      </trkpt>
      <trkpt lat="49.4122" lon="2.83149">
        <ele>50.13</ele>
        <time>2021-07-27T17:23:38Z</time>
      </trkpt>
      <trkpt lat="49.41292" lon="2.83074">
        <ele>49.16</ele>
        <time>2021-07-27T17:23:49Z</time>
      </trkpt>
      <trkpt lat="49.41359" lon="2.83004">
        <ele>48.68</ele>
        <time>2021-07-27T17:24:02Z</time>
      </trkpt>
      <trkpt lat="49.4137" lon="2.82991">
        <ele>48.68</ele>
        <time>2021-07-27T17:24:04Z</time>
      </trkpt>
      <trkpt lat="49.41379" lon="2.8298">
        <ele>49.16</ele>
        <time>2021-07-27T17:24:06Z</time>
      </trkpt>
      <trkpt lat="49.41387" lon="2.82971">
        <ele>49.16</ele>
        <time>2021-07-27T17:24:07Z</time>
      </trkpt>
      <trkpt lat="49.41391" lon="2.82967">
        <ele>49.16</ele>
        <time>2021-07-27T17:24:08Z</time>
      </trkpt>
      <trkpt lat="49.41394" lon="2.82963">
        <ele>49.16</ele>
        <time>2021-07-27T17:24:09Z</time>
      </trkpt>
      <trkpt lat="49.41398" lon="2.82959">
        <ele>48.68</ele>
        <time>2021-07-27T17:24:10Z</time>
      </trkpt>
      <trkpt lat="49.41448" lon="2.829">
        <ele>46.76</ele>
        <time>2021-07-27T17:24:22Z</time>
      </trkpt>
      <trkpt lat="49.41457" lon="2.82889">
        <ele>46.76</ele>
        <time>2021-07-27T17:24:29Z</time>
      </trkpt>
      <trkpt lat="49.41469" lon="2.82876">
        <ele>46.76</ele>
        <time>2021-07-27T17:24:37Z</time>
      </trkpt>
      <trkpt lat="49.41481" lon="2.82868">
        <ele>46.76</ele>
        <time>2021-07-27T17:24:43Z</time>
      </trkpt>
      <trkpt lat="49.41483" lon="2.82872">
        <ele>46.28</ele>
        <time>2021-07-27T17:24:44Z</time>
      </trkpt>
      <trkpt lat="49.41486" lon="2.82877">
        <ele>46.28</ele>
        <time>2021-07-27T17:24:45Z</time>
      </trkpt>
      <trkpt lat="49.41488" lon="2.82882">
        <ele>45.8</ele>
        <time>2021-07-27T17:24:46Z</time>
      </trkpt>
      <trkpt lat="49.41491" lon="2.82887">
        <ele>45.8</ele>
        <time>2021-07-27T17:24:47Z</time>
      </trkpt>
      <trkpt lat="49.41494" lon="2.82893">
        <ele>45.8</ele>
        <time>2021-07-27T17:24:48Z</time>
      </trkpt>
      <trkpt lat="49.41543" lon="2.82987">
        <ele>45.8</ele>
        <time>2021-07-27T17:24:58Z</time>
      </trkpt>
      <trkpt lat="49.4156" lon="2.8301">
        <ele>45.32</ele>
        <time>2021-07-27T17:25:03Z</time>
      </trkpt>
      <trkpt lat="49.4156" lon="2.8301">
        <ele>45.32</ele>
        <time>2021-07-27T17:25:04Z</time>
      </trkpt>
      <trkpt lat="49.41564" lon="2.83013">
        <ele>44.84</ele>
        <time>2021-07-27T17:25:05Z</time>
      </trkpt>
      <trkpt lat="49.41567" lon="2.83016">
        <ele>44.84</ele>
        <time>2021-07-27T17:25:06Z</time>
      </trkpt>
      <trkpt lat="49.41571" lon="2.8302">
        <ele>44.84</ele>
        <time>2021-07-27T17:25:07Z</time>
      </trkpt>
      <trkpt lat="49.41589" lon="2.83031">
        <ele>43.88</ele>
        <time>2021-07-27T17:25:16Z</time>
      </trkpt>
      <trkpt lat="49.41635" lon="2.83057">
        <ele>44.84</ele>
        <time>2021-07-27T17:25:25Z</time>
      </trkpt>
      <trkpt lat="49.41708" lon="2.83105">
        <ele>45.32</ele>
        <time>2021-07-27T17:25:35Z</time>
      </trkpt>
      <trkpt lat="49.41713" lon="2.83104">
        <ele>45.8</ele>
        <time>2021-07-27T17:25:36Z</time>
      </trkpt>
      <trkpt lat="49.41718" lon="2.83103">
        <ele>45.8</ele>
        <time>2021-07-27T17:25:37Z</time>
      </trkpt>
      <trkpt lat="49.41723" lon="2.83102">
        <ele>45.8</ele>
        <time>2021-07-27T17:25:38Z</time>
      </trkpt>
      <trkpt lat="49.41728" lon="2.83101">
        <ele>45.8</ele>
        <time>2021-07-27T17:25:39Z</time>
      </trkpt>
      <trkpt lat="49.41779" lon="2.83064">
        <ele>48.68</ele>
        <time>2021-07-27T17:25:52Z</time>
      </trkpt>
    </trkseg>
  </trk>
</gpx>